Time,TemperatureF,DewpointF,PressureIn,WindDirection,WindDirectionDegrees,WindSpeedMPH,WindSpeedGustMPH,Humidity,HourlyPrecipIn,Conditions,Clouds,dailyrainin,SoftwareType,DateUTC
2013-04-15 00:02:00,33.2,31.4,29.47,SE,126,11.0,13.0,93,0.00,,,0.00,Wunderground v.1.13,2013-04-15 05:02:00,
2013-04-15 00:03:00,33.3,31.5,29.47,ESE,115,11.0,13.0,93,0.00,,,0.00,Wunderground v.1.13,2013-04-15 05:03:00,
2013-04-15 00:04:00,33.3,31.5,29.47,SE,128,11.0,13.0,93,0.00,,,0.00,Wunderground v.1.13,2013-04-15 05:04:00,
2013-04-15 00:05:00,33.3,31.5,29.47,SE,129,11.0,11.0,93,0.00,,,0.00,Wunderground v.1.13,2013-04-15 05:05:00,
2013-04-15 00:09:00,33.4,31.6,29.47,ESE,114,11.0,16.0,93,0.00,,,0.00,Wunderground v.1.13,2013-04-15 05:09:00,
2013-04-15 00:10:00,33.5,31.7,29.47,ESE,114,11.0,11.0,93,0.00,,,0.00,Wunderground v.1.13,2013-04-15 05:10:00,
2013-04-15 00:15:00,33.6,32.1,29.47,ESE,114,12.0,12.0,94,0.00,,,0.00,Wunderground v.1.13,2013-04-15 05:15:00,
2013-04-15 00:16:00,33.6,32.1,29.47,ESE,123,12.0,12.0,94,0.00,,,0.01,Wunderground v.1.13,2013-04-15 05:16:00,
2013-04-15 00:18:00,33.6,32.1,29.47,ESE,114,11.0,12.0,94,0.00,,,0.01,Wunderground v.1.13,2013-04-15 05:18:00,
2013-04-15 00:23:00,33.6,32.1,29.47,SE,128,11.0,13.0,94,0.00,,,0.01,Wunderground v.1.13,2013-04-15 05:23:00,
2013-04-15 00:24:00,33.6,32.1,29.47,ESE,121,10.0,13.0,94,0.00,,,0.01,Wunderground v.1.13,2013-04-15 05:24:00,
2013-04-15 00:25:00,33.7,32.2,29.46,SE,127,10.0,15.0,94,0.00,,,0.01,Wunderground v.1.13,2013-04-15 05:25:00,
2013-04-15 00:26:00,33.7,32.2,29.46,ESE,120,10.0,15.0,94,0.00,,,0.01,Wunderground v.1.13,2013-04-15 05:26:00,
2013-04-15 00:29:00,33.8,32.3,29.46,ESE,117,11.0,15.0,94,0.00,,,0.01,Wunderground v.1.13,2013-04-15 05:29:00,
2013-04-15 00:32:00,33.8,32.3,29.46,SE,130,10.0,10.0,94,0.00,,,0.01,Wunderground v.1.13,2013-04-15 05:32:00,
2013-04-15 00:33:00,33.8,32.3,29.47,SE,131,10.0,10.0,94,0.00,,,0.01,Wunderground v.1.13,2013-04-15 05:33:00,
2013-04-15 00:36:00,33.8,32.3,29.46,SE,124,8.0,9.0,94,0.00,,,0.01,Wunderground v.1.13,2013-04-15 05:36:00,
2013-04-15 00:38:00,33.8,32.3,29.47,SE,130,7.0,10.0,94,0.00,,,0.01,Wunderground v.1.13,2013-04-15 05:38:00,
2013-04-15 00:42:00,33.8,32.3,29.47,ESE,117,7.0,11.0,94,0.00,,,0.02,Wunderground v.1.13,2013-04-15 05:42:00,
2013-04-15 00:44:00,33.8,32.3,29.47,ESE,122,8.0,11.0,94,0.00,,,0.02,Wunderground v.1.13,2013-04-15 05:44:00,
2013-04-15 00:47:00,33.8,32.3,29.47,ESE,123,8.0,9.0,94,0.00,,,0.02,Wunderground v.1.13,2013-04-15 05:47:00,
2013-04-15 00:48:00,33.8,32.3,29.47,ESE,123,8.0,9.0,94,0.00,,,0.02,Wunderground v.1.13,2013-04-15 05:48:00,
2013-04-15 00:49:00,33.8,32.3,29.47,SE,127,8.0,9.0,94,0.00,,,0.02,Wunderground v.1.13,2013-04-15 05:49:00,
2013-04-15 00:50:00,33.8,32.3,29.47,ESE,115,8.0,11.0,94,0.00,,,0.02,Wunderground v.1.13,2013-04-15 05:50:00,
2013-04-15 00:52:00,33.9,32.4,29.47,SE,126,9.0,12.0,94,0.00,,,0.02,Wunderground v.1.13,2013-04-15 05:52:00,
2013-04-15 00:56:00,33.9,32.4,29.47,ESE,119,9.0,11.0,94,0.00,,,0.02,Wunderground v.1.13,2013-04-15 05:56:00,
2013-04-15 00:57:00,34.0,32.5,29.47,ESE,122,9.0,11.0,94,0.00,,,0.02,Wunderground v.1.13,2013-04-15 05:57:00,
2013-04-15 01:02:00,34.1,32.6,29.47,SE,130,10.0,13.0,94,0.00,,,0.02,Wunderground v.1.13,2013-04-15 06:02:00,
2013-04-15 01:04:00,34.1,32.6,29.47,ESE,123,10.0,13.0,94,0.00,,,0.02,Wunderground v.1.13,2013-04-15 06:04:00,
2013-04-15 01:07:00,34.1,32.6,29.47,ESE,121,10.0,10.0,94,0.00,,,0.02,Wunderground v.1.13,2013-04-15 06:07:00,
2013-04-15 01:10:00,34.1,32.6,29.47,ESE,117,9.0,9.0,94,0.00,,,0.02,Wunderground v.1.13,2013-04-15 06:10:00,
2013-04-15 01:12:00,34.1,32.6,29.47,SE,140,8.0,9.0,94,0.00,,,0.02,Wunderground v.1.13,2013-04-15 06:12:00,
2013-04-15 01:15:00,34.2,32.7,29.47,SE,136,7.0,7.0,94,0.00,,,0.02,Wunderground v.1.13,2013-04-15 06:15:00,
2013-04-15 01:17:00,34.2,32.7,29.47,SE,135,6.0,7.0,94,0.00,,,0.02,Wunderground v.1.13,2013-04-15 06:17:00,
2013-04-15 01:19:00,34.2,32.7,29.47,SE,135,6.0,7.0,94,0.00,,,0.02,Wunderground v.1.13,2013-04-15 06:19:00,
2013-04-15 01:23:00,34.3,32.8,29.47,SE,125,4.0,6.0,94,0.00,,,0.02,Wunderground v.1.13,2013-04-15 06:23:00,
2013-04-15 01:24:00,34.3,32.8,29.47,SE,130,4.0,6.0,94,0.00,,,0.02,Wunderground v.1.13,2013-04-15 06:24:00,
2013-04-15 01:25:00,34.3,32.8,29.47,South,182,4.0,4.0,94,0.00,,,0.02,Wunderground v.1.13,2013-04-15 06:25:00,
2013-04-15 01:27:00,34.4,32.9,29.47,South,191,4.0,4.0,94,0.00,,,0.02,Wunderground v.1.13,2013-04-15 06:27:00,
2013-04-15 01:28:00,34.4,32.9,29.47,South,188,3.0,4.0,94,0.00,,,0.02,Wunderground v.1.13,2013-04-15 06:28:00,
2013-04-15 01:31:00,34.4,32.9,29.47,WSW,248,3.0,3.0,94,0.00,,,0.02,Wunderground v.1.13,2013-04-15 06:31:00,
2013-04-15 01:33:00,34.4,32.9,29.47,WSW,248,2.0,3.0,94,0.00,,,0.02,Wunderground v.1.13,2013-04-15 06:33:00,
2013-04-15 01:37:00,34.4,32.9,29.46,WSW,248,1.0,2.0,94,0.00,,,0.02,Wunderground v.1.13,2013-04-15 06:37:00,
2013-04-15 01:39:00,34.5,33.0,29.47,SSE,158,1.0,2.0,94,0.00,,,0.02,Wunderground v.1.13,2013-04-15 06:39:00,
2013-04-15 01:41:00,34.4,32.9,29.47,SSE,158,1.0,1.0,94,0.00,,,0.02,Wunderground v.1.13,2013-04-15 06:41:00,
2013-04-15 01:42:00,34.4,32.9,29.46,SSE,158,1.0,3.0,94,0.00,,,0.02,Wunderground v.1.13,2013-04-15 06:42:00,
2013-04-15 01:46:00,34.5,33.0,29.46,South,172,2.0,5.0,94,0.00,,,0.02,Wunderground v.1.13,2013-04-15 06:46:00,
2013-04-15 01:47:00,34.5,33.0,29.46,South,182,2.0,5.0,94,0.00,,,0.02,Wunderground v.1.13,2013-04-15 06:47:00,
2013-04-15 01:52:00,34.5,33.0,29.46,SW,226,3.0,4.0,94,0.00,,,0.02,Wunderground v.1.13,2013-04-15 06:52:00,
2013-04-15 01:57:00,34.3,32.8,29.46,South,173,3.0,5.0,94,0.00,,,0.02,Wunderground v.1.13,2013-04-15 06:57:00,
2013-04-15 01:58:00,34.3,32.8,29.46,South,191,3.0,5.0,94,0.00,,,0.02,Wunderground v.1.13,2013-04-15 06:58:00,
2013-04-15 02:03:00,34.3,32.8,29.46,SW,219,3.0,4.0,94,0.00,,,0.02,Wunderground v.1.13,2013-04-15 07:03:00,
2013-04-15 02:42:00,33.6,32.1,29.46,ESE,121,2.0,5.0,94,0.00,,,0.02,Wunderground v.1.13,2013-04-15 07:42:00,
2013-04-15 02:44:00,33.5,31.7,29.46,SE,126,2.0,5.0,93,0.00,,,0.02,Wunderground v.1.13,2013-04-15 07:44:00,
2013-04-15 02:45:00,33.4,31.6,29.46,South,187,2.0,2.0,93,0.00,,,0.02,Wunderground v.1.13,2013-04-15 07:45:00,
2013-04-15 02:48:00,33.4,31.6,29.46,South,175,2.0,5.0,93,0.00,,,0.02,Wunderground v.1.13,2013-04-15 07:48:00,
2013-04-15 02:49:00,33.4,31.6,29.47,SSW,200,2.0,5.0,93,0.00,,,0.02,Wunderground v.1.13,2013-04-15 07:49:00,
2013-04-15 02:53:00,33.3,31.5,29.47,SSE,163,2.0,5.0,93,0.00,,,0.02,Wunderground v.1.13,2013-04-15 07:53:00,
2013-04-15 02:54:00,33.3,31.5,29.47,SSW,192,2.0,5.0,93,0.00,,,0.02,Wunderground v.1.13,2013-04-15 07:54:00,
2013-04-15 02:58:00,33.2,31.4,29.47,SSE,157,3.0,7.0,93,0.00,,,0.02,Wunderground v.1.13,2013-04-15 07:58:00,
2013-04-15 02:59:00,33.2,31.4,29.47,SW,221,3.0,7.0,93,0.00,,,0.02,Wunderground v.1.13,2013-04-15 07:59:00,
2013-04-15 03:01:00,33.2,31.4,29.47,SW,218,3.0,5.0,93,0.00,,,0.02,Wunderground v.1.13,2013-04-15 08:01:00,
2013-04-15 03:02:00,33.2,31.4,29.47,SW,218,4.0,5.0,93,0.00,,,0.02,Wunderground v.1.13,2013-04-15 08:02:00,
2013-04-15 03:08:00,33.1,31.3,29.47,SE,128,4.0,5.0,93,0.00,,,0.02,Wunderground v.1.13,2013-04-15 08:08:00,
2013-04-15 03:09:00,33.1,31.3,29.47,SSW,205,4.0,5.0,93,0.00,,,0.02,Wunderground v.1.13,2013-04-15 08:09:00,
2013-04-15 03:14:00,33.1,31.3,29.47,SSW,209,3.0,4.0,93,0.00,,,0.02,Wunderground v.1.13,2013-04-15 08:14:00,
2013-04-15 03:15:00,33.1,31.3,29.47,SSW,209,2.0,2.0,93,0.00,,,0.02,Wunderground v.1.13,2013-04-15 08:15:00,
2013-04-15 03:16:00,33.1,31.3,29.47,SW,226,2.0,5.0,93,0.00,,,0.02,Wunderground v.1.13,2013-04-15 08:16:00,
2013-04-15 03:19:00,32.9,31.1,29.47,South,185,2.0,13.0,93,0.00,,,0.02,Wunderground v.1.13,2013-04-15 08:19:00,
2013-04-15 03:22:00,32.9,31.1,29.47,SSW,200,3.0,4.0,93,0.00,,,0.02,Wunderground v.1.13,2013-04-15 08:22:00,
2013-04-15 03:25:00,32.9,30.8,29.47,WSW,242,5.0,5.0,92,0.00,,,0.02,Wunderground v.1.13,2013-04-15 08:25:00,
2013-04-15 03:27:00,32.9,30.8,29.47,SSE,155,5.0,5.0,92,0.00,,,0.02,Wunderground v.1.13,2013-04-15 08:27:00,
2013-04-15 03:30:00,33.0,30.9,29.47,SSE,149,4.0,4.0,92,0.00,,,0.02,Wunderground v.1.13,2013-04-15 08:30:00,
2013-04-15 03:33:00,33.0,30.9,29.47,SSE,149,3.0,4.0,92,0.00,,,0.02,Wunderground v.1.13,2013-04-15 08:33:00,
2013-04-15 03:37:00,33.0,30.9,29.47,SSE,149,2.0,2.0,92,0.00,,,0.02,Wunderground v.1.13,2013-04-15 08:37:00,
2013-04-15 03:39:00,32.9,30.8,29.47,SSE,149,1.0,4.0,92,0.00,,,0.02,Wunderground v.1.13,2013-04-15 08:39:00,
2013-04-15 03:40:00,32.9,30.8,29.47,SSE,150,1.0,3.0,92,0.00,,,0.02,Wunderground v.1.13,2013-04-15 08:40:00,
2013-04-15 03:41:00,32.9,30.8,29.47,SSE,150,1.0,3.0,92,0.00,,,0.02,Wunderground v.1.13,2013-04-15 08:41:00,
2013-04-15 03:45:00,33.0,30.9,29.47,SE,138,1.0,6.0,92,0.00,,,0.02,Wunderground v.1.13,2013-04-15 08:45:00,
2013-04-15 03:46:00,33.0,30.7,29.47,East,99,2.0,6.0,91,0.00,,,0.02,Wunderground v.1.13,2013-04-15 08:46:00,
2013-04-15 03:47:00,33.0,30.7,29.47,ESE,121,2.0,6.0,91,0.00,,,0.02,Wunderground v.1.13,2013-04-15 08:47:00,
2013-04-15 03:52:00,33.1,30.8,29.47,SSE,161,4.0,10.0,91,0.00,,,0.02,Wunderground v.1.13,2013-04-15 08:52:00,
2013-04-15 03:53:00,33.2,30.9,29.47,SW,215,5.0,10.0,91,0.00,,,0.02,Wunderground v.1.13,2013-04-15 08:53:00,
2013-04-15 03:55:00,33.2,30.6,29.47,WSW,244,5.0,5.0,90,0.00,,,0.02,Wunderground v.1.13,2013-04-15 08:55:00,
2013-04-15 03:58:00,33.1,30.5,29.47,SW,226,5.0,8.0,90,0.00,,,0.02,Wunderground v.1.13,2013-04-15 08:58:00,
2013-04-15 04:02:00,33.0,29.8,29.47,SW,220,6.0,9.0,88,0.00,,,0.02,Wunderground v.1.13,2013-04-15 09:02:00,
2013-04-15 04:05:00,33.0,29.6,29.47,SW,229,6.0,6.0,87,0.00,,,0.02,Wunderground v.1.13,2013-04-15 09:05:00,
2013-04-15 04:07:00,33.0,29.3,29.47,SSW,202,6.0,8.0,86,0.00,,,0.02,Wunderground v.1.13,2013-04-15 09:07:00,
2013-04-15 04:08:00,33.0,29.3,29.47,SSE,165,6.0,9.0,86,0.00,,,0.02,Wunderground v.1.13,2013-04-15 09:08:00,
2013-04-15 04:09:00,33.0,29.3,29.47,SSW,205,6.0,9.0,86,0.00,,,0.02,Wunderground v.1.13,2013-04-15 09:09:00,
2013-04-15 04:11:00,33.0,29.0,29.47,SE,142,6.0,10.0,85,0.00,,,0.02,Wunderground v.1.13,2013-04-15 09:11:00,
2013-04-15 04:13:00,33.0,29.0,29.47,SSW,210,6.0,10.0,85,0.00,,,0.02,Wunderground v.1.13,2013-04-15 09:13:00,
2013-04-15 04:15:00,32.9,28.6,29.47,SSW,205,6.0,6.0,84,0.00,,,0.02,Wunderground v.1.13,2013-04-15 09:15:00,
2013-04-15 04:19:00,32.9,28.3,29.47,South,175,7.0,7.0,83,0.00,,,0.02,Wunderground v.1.13,2013-04-15 09:19:00,
2013-04-15 04:20:00,32.8,28.2,29.47,SW,214,7.0,7.0,83,0.00,,,0.02,Wunderground v.1.13,2013-04-15 09:20:00,
2013-04-15 04:22:00,32.8,28.2,29.47,South,172,7.0,7.0,83,0.00,,,0.02,Wunderground v.1.13,2013-04-15 09:22:00,
2013-04-15 04:25:00,32.8,28.2,29.48,SW,232,7.0,7.0,83,0.00,,,0.02,Wunderground v.1.13,2013-04-15 09:25:00,
2013-04-15 04:26:00,32.7,28.1,29.47,South,171,7.0,8.0,83,0.00,,,0.02,Wunderground v.1.13,2013-04-15 09:26:00,
2013-04-15 04:27:00,32.7,28.1,29.47,SSE,148,7.0,8.0,83,0.00,,,0.02,Wunderground v.1.13,2013-04-15 09:27:00,
2013-04-15 04:30:00,32.6,27.7,29.48,South,177,5.0,5.0,82,0.00,,,0.02,Wunderground v.1.13,2013-04-15 09:30:00,
2013-04-15 04:32:00,32.5,27.6,29.48,South,188,5.0,11.0,82,0.00,,,0.02,Wunderground v.1.13,2013-04-15 09:32:00,
2013-04-15 04:36:00,32.4,27.5,29.48,South,173,6.0,8.0,82,0.00,,,0.02,Wunderground v.1.13,2013-04-15 09:36:00,
2013-04-15 04:37:00,32.4,27.5,29.48,South,175,5.0,13.0,82,0.00,,,0.02,Wunderground v.1.13,2013-04-15 09:37:00,
2013-04-15 04:38:00,32.5,27.6,29.48,SE,133,6.0,13.0,82,0.00,,,0.02,Wunderground v.1.13,2013-04-15 09:38:00,
2013-04-15 04:42:00,32.4,27.2,29.48,South,177,6.0,11.0,81,0.00,,,0.02,Wunderground v.1.13,2013-04-15 09:42:00,
2013-04-15 04:43:00,32.4,27.2,29.48,South,189,6.0,12.0,81,0.00,,,0.02,Wunderground v.1.13,2013-04-15 09:43:00,
2013-04-15 04:44:00,32.4,27.2,29.48,SW,215,7.0,12.0,81,0.00,,,0.02,Wunderground v.1.13,2013-04-15 09:44:00,
2013-04-15 04:48:00,32.4,27.2,29.48,SW,232,6.0,11.0,81,0.00,,,0.02,Wunderground v.1.13,2013-04-15 09:48:00,
2013-04-15 04:49:00,32.4,27.2,29.48,SSE,150,6.0,12.0,81,0.00,,,0.02,Wunderground v.1.13,2013-04-15 09:49:00,
2013-04-15 04:54:00,32.4,26.9,29.48,WSW,250,7.0,13.0,80,0.00,,,0.02,Wunderground v.1.13,2013-04-15 09:54:00,
2013-04-15 04:55:00,32.4,26.9,29.48,SSW,196,7.0,7.0,80,0.00,,,0.02,Wunderground v.1.13,2013-04-15 09:55:00,
2013-04-15 04:56:00,32.4,26.9,29.48,SSW,210,7.0,7.0,80,0.00,,,0.02,Wunderground v.1.13,2013-04-15 09:56:00,
2013-04-15 04:58:00,32.4,26.9,29.48,South,188,7.0,9.0,80,0.00,,,0.02,Wunderground v.1.13,2013-04-15 09:58:00,
2013-04-15 05:00:00,32.4,26.9,29.48,SW,215,7.0,7.0,80,0.00,,,0.02,Wunderground v.1.13,2013-04-15 10:00:00,
2013-04-15 05:01:00,32.4,26.9,29.48,SSW,206,6.0,7.0,80,0.00,,,0.02,Wunderground v.1.13,2013-04-15 10:01:00,
2013-04-15 05:03:00,32.3,26.8,29.48,ESE,120,5.0,8.0,80,0.00,,,0.02,Wunderground v.1.13,2013-04-15 10:03:00,
2013-04-15 05:07:00,32.3,26.8,29.47,SSE,165,5.0,5.0,80,0.00,,,0.02,Wunderground v.1.13,2013-04-15 10:07:00,
2013-04-15 05:08:00,32.3,26.8,29.48,WSW,243,4.0,5.0,80,0.00,,,0.02,Wunderground v.1.13,2013-04-15 10:08:00,
2013-04-15 05:10:00,32.2,26.7,29.47,WSW,255,4.0,4.0,80,0.00,,,0.02,Wunderground v.1.13,2013-04-15 10:10:00,
2013-04-15 05:12:00,32.2,26.7,29.47,South,182,4.0,5.0,80,0.00,,,0.02,Wunderground v.1.13,2013-04-15 10:12:00,
2013-04-15 05:14:00,32.2,26.7,29.47,South,184,5.0,6.0,80,0.00,,,0.02,Wunderground v.1.13,2013-04-15 10:14:00,
2013-04-15 05:15:00,32.2,26.7,29.47,South,181,5.0,5.0,80,0.00,,,0.02,Wunderground v.1.13,2013-04-15 10:15:00,
2013-04-15 05:18:00,32.2,26.7,29.47,South,190,5.0,5.0,80,0.00,,,0.02,Wunderground v.1.13,2013-04-15 10:18:00,
2013-04-15 05:20:00,32.1,26.6,29.47,SE,142,5.0,5.0,80,0.00,,,0.02,Wunderground v.1.13,2013-04-15 10:20:00,
2013-04-15 05:23:00,32.1,26.6,29.47,SSE,166,5.0,9.0,80,0.00,,,0.02,Wunderground v.1.13,2013-04-15 10:23:00,
2013-04-15 05:25:00,32.1,26.6,29.47,SSW,200,4.0,5.0,80,0.00,,,0.02,Wunderground v.1.13,2013-04-15 10:25:00,
2013-04-15 05:27:00,32.1,26.6,29.48,SSW,193,4.0,9.0,80,0.00,,,0.02,Wunderground v.1.13,2013-04-15 10:27:00,
2013-04-15 05:31:00,32.1,26.6,29.47,SW,234,5.0,6.0,80,0.00,,,0.02,Wunderground v.1.13,2013-04-15 10:31:00,
2013-04-15 05:33:00,32.0,26.2,29.47,South,171,5.0,6.0,79,0.00,,,0.02,Wunderground v.1.13,2013-04-15 10:33:00,
2013-04-15 05:35:00,32.0,26.2,29.47,SSE,159,6.0,7.0,79,0.00,,,0.02,Wunderground v.1.13,2013-04-15 10:35:00,
2013-04-15 05:38:00,32.0,26.5,29.47,WSW,256,5.0,6.0,80,0.00,,,0.02,Wunderground v.1.13,2013-04-15 10:38:00,
2013-04-15 05:39:00,32.0,26.2,29.47,SSE,166,5.0,7.0,79,0.00,,,0.02,Wunderground v.1.13,2013-04-15 10:39:00,
2013-04-15 05:42:00,31.9,26.1,29.47,ESE,119,5.0,8.0,79,0.00,,,0.02,Wunderground v.1.13,2013-04-15 10:42:00,
2013-04-15 05:43:00,32.0,26.2,29.47,South,186,6.0,8.0,79,0.00,,,0.02,Wunderground v.1.13,2013-04-15 10:43:00,
2013-04-15 05:45:00,32.0,26.2,29.47,WSW,244,5.0,8.0,79,0.00,,,0.02,Wunderground v.1.13,2013-04-15 10:45:00,
2013-04-15 05:48:00,31.9,26.1,29.47,South,180,5.0,6.0,79,0.00,,,0.02,Wunderground v.1.13,2013-04-15 10:48:00,
2013-04-15 05:51:00,31.9,26.1,29.47,SSW,209,4.0,15.0,79,0.00,,,0.02,Wunderground v.1.13,2013-04-15 10:51:00,
2013-04-15 05:52:00,31.9,26.1,29.47,SW,222,4.0,15.0,79,0.00,,,0.02,Wunderground v.1.13,2013-04-15 10:52:00,
2013-04-15 05:55:00,31.9,26.1,29.47,SSW,194,4.0,15.0,79,0.00,,,0.02,Wunderground v.1.13,2013-04-15 10:55:00,
2013-04-15 05:57:00,31.9,26.1,29.47,SE,142,5.0,10.0,79,0.00,,,0.02,Wunderground v.1.13,2013-04-15 10:57:00,
2013-04-15 05:58:00,31.9,26.1,29.47,SSE,165,5.0,10.0,79,0.00,,,0.02,Wunderground v.1.13,2013-04-15 10:58:00,
2013-04-15 06:00:00,31.9,26.1,29.47,South,178,6.0,7.0,79,0.00,,,0.02,Wunderground v.1.13,2013-04-15 11:00:00,
2013-04-15 06:02:00,31.9,26.1,29.47,SSW,205,6.0,7.0,79,0.00,,,0.02,Wunderground v.1.13,2013-04-15 11:02:00,
2013-04-15 06:05:00,31.9,26.1,29.47,South,171,6.0,6.0,79,0.00,,,0.02,Wunderground v.1.13,2013-04-15 11:05:00,
2013-04-15 06:09:00,31.9,26.1,29.47,WSW,239,5.0,6.0,79,0.00,,,0.02,Wunderground v.1.13,2013-04-15 11:09:00,
2013-04-15 06:10:00,31.8,26.0,29.47,SSW,201,5.0,5.0,79,0.00,,,0.02,Wunderground v.1.13,2013-04-15 11:10:00,
2013-04-15 06:12:00,31.8,26.0,29.47,South,169,5.0,5.0,79,0.00,,,0.02,Wunderground v.1.13,2013-04-15 11:12:00,
2013-04-15 06:17:00,31.8,26.0,29.47,SSW,196,4.0,7.0,79,0.00,,,0.02,Wunderground v.1.13,2013-04-15 11:17:00,
2013-04-15 06:19:00,31.8,26.0,29.47,WSW,240,4.0,7.0,79,0.00,,,0.02,Wunderground v.1.13,2013-04-15 11:19:00,
2013-04-15 06:23:00,31.8,26.0,29.47,SSW,194,5.0,7.0,79,0.00,,,0.02,Wunderground v.1.13,2013-04-15 11:23:00,
2013-04-15 06:24:00,31.8,26.0,29.47,SSW,213,5.0,8.0,79,0.00,,,0.02,Wunderground v.1.13,2013-04-15 11:24:00,
2013-04-15 06:25:00,31.8,26.0,29.47,SW,219,6.0,6.0,79,0.00,,,0.02,Wunderground v.1.13,2013-04-15 11:25:00,
2013-04-15 06:29:00,31.8,26.0,29.47,SW,230,6.0,10.0,79,0.00,,,0.02,Wunderground v.1.13,2013-04-15 11:29:00,
2013-04-15 06:33:00,31.8,26.0,29.47,WSW,246,5.0,7.0,79,0.00,,,0.02,Wunderground v.1.13,2013-04-15 11:33:00,
2013-04-15 06:37:00,31.8,26.0,29.47,SW,218,5.0,5.0,79,0.00,,,0.02,Wunderground v.1.13,2013-04-15 11:37:00,
2013-04-15 06:38:00,31.8,26.0,29.47,South,178,5.0,5.0,79,0.00,,,0.02,Wunderground v.1.13,2013-04-15 11:38:00,
2013-04-15 06:39:00,31.8,26.0,29.47,SW,229,4.0,5.0,79,0.00,,,0.02,Wunderground v.1.13,2013-04-15 11:39:00,
2013-04-15 06:42:00,31.8,26.0,29.48,SSW,195,4.0,9.0,79,0.00,,,0.02,Wunderground v.1.13,2013-04-15 11:42:00,
2013-04-15 06:44:00,31.8,26.0,29.47,South,171,5.0,9.0,79,0.00,,,0.02,Wunderground v.1.13,2013-04-15 11:44:00,
2013-04-15 06:48:00,31.8,26.0,29.47,SE,130,5.0,12.0,79,0.00,,,0.02,Wunderground v.1.13,2013-04-15 11:48:00,
2013-04-15 06:49:00,31.8,26.0,29.48,SE,144,5.0,12.0,79,0.00,,,0.02,Wunderground v.1.13,2013-04-15 11:49:00,
2013-04-15 06:50:00,31.8,26.0,29.48,East,83,5.0,5.0,79,0.00,,,0.02,Wunderground v.1.13,2013-04-15 11:50:00,
2013-04-15 06:54:00,31.9,26.1,29.48,SSW,211,4.0,7.0,79,0.00,,,0.02,Wunderground v.1.13,2013-04-15 11:54:00,
2013-04-15 06:57:00,31.9,26.1,29.48,South,180,3.0,7.0,79,0.00,,,0.02,Wunderground v.1.13,2013-04-15 11:57:00,
2013-04-15 06:58:00,31.9,26.1,29.48,SW,233,3.0,7.0,79,0.00,,,0.02,Wunderground v.1.13,2013-04-15 11:58:00,
2013-04-15 07:00:00,31.9,26.1,29.48,SSW,210,3.0,8.0,79,0.00,,,0.02,Wunderground v.1.13,2013-04-15 12:00:00,
2013-04-15 07:04:00,31.9,26.1,29.48,South,183,5.0,8.0,79,0.00,,,0.02,Wunderground v.1.13,2013-04-15 12:04:00,
2013-04-15 07:06:00,31.9,26.1,29.48,SW,230,5.0,7.0,79,0.00,,,0.02,Wunderground v.1.13,2013-04-15 12:06:00,
2013-04-15 07:10:00,31.9,26.1,29.49,SSW,209,6.0,6.0,79,0.00,,,0.02,Wunderground v.1.13,2013-04-15 12:10:00,
2013-04-15 07:12:00,31.9,26.1,29.49,SW,227,6.0,7.0,79,0.00,,,0.02,Wunderground v.1.13,2013-04-15 12:12:00,
2013-04-15 07:15:00,31.9,26.1,29.49,South,171,5.0,5.0,79,0.00,,,0.02,Wunderground v.1.13,2013-04-15 12:15:00,
2013-04-15 07:17:00,31.9,26.1,29.49,SW,236,5.0,6.0,79,0.00,,,0.02,Wunderground v.1.13,2013-04-15 12:17:00,
2013-04-15 07:20:00,32.0,26.2,29.49,SW,236,5.0,5.0,79,0.00,,,0.02,Wunderground v.1.13,2013-04-15 12:20:00,
2013-04-15 07:22:00,32.0,26.2,29.49,SSW,201,6.0,7.0,79,0.00,,,0.02,Wunderground v.1.13,2013-04-15 12:22:00,
2013-04-15 07:26:00,32.0,26.2,29.49,South,184,6.0,11.0,79,0.00,,,0.02,Wunderground v.1.13,2013-04-15 12:26:00,
2013-04-15 07:30:00,32.1,26.3,29.49,SW,219,6.0,12.0,79,0.00,,,0.02,Wunderground v.1.13,2013-04-15 12:30:00,
2013-04-15 07:33:00,32.1,26.3,29.49,SE,143,6.0,12.0,79,0.00,,,0.02,Wunderground v.1.13,2013-04-15 12:33:00,
2013-04-15 07:36:00,32.1,26.3,29.49,South,176,5.0,6.0,79,0.00,,,0.02,Wunderground v.1.13,2013-04-15 12:36:00,
2013-04-15 07:39:00,32.2,26.4,29.50,SSW,203,5.0,7.0,79,0.00,,,0.02,Wunderground v.1.13,2013-04-15 12:39:00,
2013-04-15 07:42:00,32.2,26.7,29.50,South,176,5.0,5.0,80,0.00,,,0.02,Wunderground v.1.13,2013-04-15 12:42:00,
2013-04-15 07:44:00,32.3,26.5,29.50,South,176,5.0,5.0,79,0.00,,,0.02,Wunderground v.1.13,2013-04-15 12:44:00,
2013-04-15 07:45:00,32.3,26.5,29.50,South,176,5.0,5.0,79,0.00,,,0.02,Wunderground v.1.13,2013-04-15 12:45:00,
2013-04-15 07:49:00,32.3,26.5,29.50,SSE,148,4.0,6.0,79,0.00,,,0.02,Wunderground v.1.13,2013-04-15 12:49:00,
2013-04-15 07:53:00,32.3,26.5,29.50,SSW,213,4.0,7.0,79,0.00,,,0.02,Wunderground v.1.13,2013-04-15 12:53:00,
2013-04-15 07:57:00,32.3,26.5,29.50,SW,236,5.0,8.0,79,0.00,,,0.02,Wunderground v.1.13,2013-04-15 12:57:00,
2013-04-15 08:02:00,32.3,26.8,29.51,SE,130,4.0,5.0,80,0.00,,,0.02,Wunderground v.1.13,2013-04-15 13:02:00,
2013-04-15 08:05:00,32.3,26.8,29.51,SSE,160,4.0,7.0,80,0.00,,,0.02,Wunderground v.1.13,2013-04-15 13:05:00,
2013-04-15 08:07:00,32.3,26.8,29.50,SSW,196,4.0,10.0,80,0.00,,,0.02,Wunderground v.1.13,2013-04-15 13:07:00,
2013-04-15 08:12:00,32.4,26.9,29.51,SSW,200,5.0,6.0,80,0.00,,,0.02,Wunderground v.1.13,2013-04-15 13:12:00,
2013-04-15 08:17:00,32.4,26.9,29.51,SSW,203,6.0,6.0,80,0.00,,,0.02,Wunderground v.1.13,2013-04-15 13:17:00,
2013-04-15 08:19:00,32.4,26.9,29.51,SSE,153,5.0,11.0,80,0.00,,,0.02,Wunderground v.1.13,2013-04-15 13:19:00,
2013-04-15 08:24:00,32.5,27.0,29.50,SSW,196,5.0,7.0,80,0.00,,,0.02,Wunderground v.1.13,2013-04-15 13:24:00,
2013-04-15 08:27:00,32.5,27.0,29.50,WSW,252,5.0,6.0,80,0.00,,,0.02,Wunderground v.1.13,2013-04-15 13:27:00,
2013-04-15 08:31:00,32.6,27.1,29.51,SSW,194,5.0,5.0,80,0.00,,,0.02,Wunderground v.1.13,2013-04-15 13:31:00,
2013-04-15 08:34:00,32.7,27.2,29.51,South,189,5.0,6.0,80,0.00,,,0.02,Wunderground v.1.13,2013-04-15 13:34:00,
2013-04-15 08:35:00,32.7,27.2,29.51,SW,229,5.0,6.0,80,0.00,,,0.02,Wunderground v.1.13,2013-04-15 13:35:00,
2013-04-15 08:40:00,32.7,27.2,29.51,WSW,238,5.0,9.0,80,0.00,,,0.02,Wunderground v.1.13,2013-04-15 13:40:00,
2013-04-15 08:42:00,32.7,27.2,29.51,South,180,5.0,6.0,80,0.00,,,0.02,Wunderground v.1.13,2013-04-15 13:42:00,
2013-04-15 08:43:00,32.7,27.2,29.51,SSW,208,6.0,14.0,80,0.00,,,0.02,Wunderground v.1.13,2013-04-15 13:43:00,
2013-04-15 08:46:00,32.8,27.3,29.51,South,169,6.0,6.0,80,0.00,,,0.02,Wunderground v.1.13,2013-04-15 13:46:00,
2013-04-15 08:47:00,32.8,27.3,29.51,WSW,237,6.0,6.0,80,0.00,,,0.02,Wunderground v.1.13,2013-04-15 13:47:00,
2013-04-15 08:53:00,32.9,27.4,29.51,SE,133,6.0,8.0,80,0.00,,,0.02,Wunderground v.1.13,2013-04-15 13:53:00,
2013-04-15 08:54:00,32.9,27.4,29.51,WSW,245,5.0,8.0,80,0.00,,,0.02,Wunderground v.1.13,2013-04-15 13:54:00,
2013-04-15 08:58:00,32.9,27.4,29.51,SSE,150,5.0,8.0,80,0.00,,,0.02,Wunderground v.1.13,2013-04-15 13:58:00,
2013-04-15 09:00:00,33.0,27.5,29.51,ESE,118,5.0,5.0,80,0.00,,,0.02,Wunderground v.1.13,2013-04-15 14:00:00,
2013-04-15 09:06:00,33.0,27.5,29.51,South,181,6.0,13.0,80,0.00,,,0.02,Wunderground v.1.13,2013-04-15 14:06:00,
2013-04-15 09:07:00,33.1,27.6,29.51,SE,144,6.0,13.0,80,0.00,,,0.02,Wunderground v.1.13,2013-04-15 14:07:00,
2013-04-15 09:10:00,33.2,27.7,29.51,SW,222,6.0,6.0,80,0.00,,,0.02,Wunderground v.1.13,2013-04-15 14:10:00,
2013-04-15 09:11:00,33.2,27.7,29.51,SSW,201,6.0,6.0,80,0.00,,,0.02,Wunderground v.1.13,2013-04-15 14:11:00,
2013-04-15 09:13:00,33.3,27.8,29.50,SSE,153,6.0,9.0,80,0.00,,,0.02,Wunderground v.1.13,2013-04-15 14:13:00,
2013-04-15 09:18:00,33.4,27.9,29.50,SSE,154,5.0,8.0,80,0.00,,,0.02,Wunderground v.1.13,2013-04-15 14:18:00,
2013-04-15 09:19:00,33.4,27.9,29.51,SW,217,4.0,10.0,80,0.00,,,0.02,Wunderground v.1.13,2013-04-15 14:19:00,
2013-04-15 09:22:00,33.4,27.6,29.51,SW,227,6.0,10.0,79,0.00,,,0.02,Wunderground v.1.13,2013-04-15 14:22:00,
2013-04-15 09:24:00,33.4,27.6,29.51,SSW,208,5.0,10.0,79,0.00,,,0.02,Wunderground v.1.13,2013-04-15 14:24:00,
2013-04-15 09:29:00,33.5,27.7,29.51,WSW,238,6.0,6.0,79,0.00,,,0.02,Wunderground v.1.13,2013-04-15 14:29:00,
2013-04-15 09:30:00,33.6,27.8,29.51,SSW,208,5.0,5.0,79,0.00,,,0.02,Wunderground v.1.13,2013-04-15 14:30:00,
2013-04-15 09:31:00,33.6,27.8,29.51,SSW,208,5.0,5.0,79,0.00,,,0.02,Wunderground v.1.13,2013-04-15 14:31:00,
2013-04-15 09:37:00,33.7,28.2,29.51,SSW,203,5.0,7.0,80,0.00,,,0.02,Wunderground v.1.13,2013-04-15 14:37:00,
2013-04-15 09:40:00,33.7,28.2,29.51,SW,233,5.0,5.0,80,0.00,,,0.02,Wunderground v.1.13,2013-04-15 14:40:00,
2013-04-15 09:46:00,33.8,28.3,29.51,SE,138,6.0,6.0,80,0.00,,,0.02,Wunderground v.1.13,2013-04-15 14:46:00,
2013-04-15 09:47:00,33.8,28.3,29.52,South,183,5.0,6.0,80,0.00,,,0.02,Wunderground v.1.13,2013-04-15 14:47:00,
2013-04-15 09:48:00,33.8,28.3,29.52,WSW,242,5.0,6.0,80,0.00,,,0.02,Wunderground v.1.13,2013-04-15 14:48:00,
2013-04-15 09:53:00,33.9,28.4,29.52,SSW,194,5.0,5.0,80,0.00,,,0.02,Wunderground v.1.13,2013-04-15 14:53:00,
2013-04-15 09:54:00,33.9,28.4,29.52,SSW,194,4.0,5.0,80,0.00,,,0.02,Wunderground v.1.13,2013-04-15 14:54:00,
2013-04-15 09:55:00,33.9,28.4,29.52,SSW,195,4.0,5.0,80,0.00,,,0.02,Wunderground v.1.13,2013-04-15 14:55:00,
2013-04-15 09:59:00,34.1,28.6,29.52,SSE,157,4.0,5.0,80,0.00,,,0.02,Wunderground v.1.13,2013-04-15 14:59:00,
2013-04-15 10:02:00,34.1,28.3,29.52,SW,219,4.0,11.0,79,0.00,,,0.02,Wunderground v.1.13,2013-04-15 15:02:00,
2013-04-15 10:05:00,34.2,28.4,29.52,SSW,206,5.0,5.0,79,0.00,,,0.02,Wunderground v.1.13,2013-04-15 15:05:00,
2013-04-15 10:08:00,34.2,29.9,29.52,SSW,199,6.0,6.0,84,0.00,,,0.02,Wunderground v.1.13,2013-04-15 15:08:00,
2013-04-15 10:13:00,34.3,28.5,29.52,SW,236,6.0,9.0,79,0.00,,,0.02,Wunderground v.1.13,2013-04-15 15:13:00,
2013-04-15 10:14:00,34.4,28.6,29.52,SSW,192,6.0,11.0,79,0.00,,,0.02,Wunderground v.1.13,2013-04-15 15:14:00,
2013-04-15 10:19:00,34.7,28.9,29.52,SSW,194,5.0,8.0,79,0.00,,,0.02,Wunderground v.1.13,2013-04-15 15:19:00,
2013-04-15 10:21:00,34.8,28.6,29.52,SSW,210,6.0,9.0,78,0.00,,,0.02,Wunderground v.1.13,2013-04-15 15:21:00,
2013-04-15 10:24:00,34.8,28.6,29.52,SW,223,6.0,9.0,78,0.00,,,0.02,Wunderground v.1.13,2013-04-15 15:24:00,
2013-04-15 10:27:00,34.8,28.6,29.53,SSW,194,6.0,6.0,78,0.00,,,0.02,Wunderground v.1.13,2013-04-15 15:27:00,
2013-04-15 10:30:00,34.8,28.6,29.53,SSW,205,5.0,10.0,78,0.00,,,0.02,Wunderground v.1.13,2013-04-15 15:30:00,
2013-04-15 10:33:00,34.8,28.6,29.53,SW,221,5.0,10.0,78,0.00,,,0.02,Wunderground v.1.13,2013-04-15 15:33:00,
2013-04-15 10:35:00,34.9,28.7,29.53,SW,225,5.0,12.0,78,0.00,,,0.02,Wunderground v.1.13,2013-04-15 15:35:00,
2013-04-15 10:37:00,34.8,28.3,29.53,WSW,237,6.0,12.0,77,0.00,,,0.02,Wunderground v.1.13,2013-04-15 15:37:00,
2013-04-15 10:42:00,34.9,28.7,29.54,SSW,199,6.0,9.0,78,0.00,,,0.02,Wunderground v.1.13,2013-04-15 15:42:00,
2013-04-15 10:43:00,35.0,28.8,29.54,South,178,7.0,9.0,78,0.00,,,0.02,Wunderground v.1.13,2013-04-15 15:43:00,
2013-04-15 10:45:00,35.1,28.9,29.55,WSW,240,6.0,6.0,78,0.00,,,0.02,Wunderground v.1.13,2013-04-15 15:45:00,
2013-04-15 10:48:00,35.2,28.7,29.55,SSE,168,6.0,10.0,77,0.00,,,0.02,Wunderground v.1.13,2013-04-15 15:48:00,
2013-04-15 10:49:00,35.2,28.7,29.55,WSW,250,6.0,10.0,77,0.00,,,0.02,Wunderground v.1.13,2013-04-15 15:49:00,
2013-04-15 10:53:00,35.4,28.9,29.55,West,261,5.0,7.0,77,0.00,,,0.02,Wunderground v.1.13,2013-04-15 15:53:00,
2013-04-15 10:54:00,35.4,28.9,29.55,West,261,4.0,7.0,77,0.00,,,0.02,Wunderground v.1.13,2013-04-15 15:54:00,
2013-04-15 10:58:00,35.5,29.0,29.56,SW,235,4.0,9.0,77,0.00,,,0.02,Wunderground v.1.13,2013-04-15 15:58:00,
2013-04-15 10:59:00,35.6,29.1,29.56,South,186,4.0,9.0,77,0.00,,,0.02,Wunderground v.1.13,2013-04-15 15:59:00,
2013-04-15 11:01:00,35.6,29.1,29.56,SW,231,4.0,7.0,77,0.00,,,0.02,Wunderground v.1.13,2013-04-15 16:01:00,
2013-04-15 11:04:00,35.6,29.1,29.56,WSW,257,6.0,10.0,77,0.00,,,0.02,Wunderground v.1.13,2013-04-15 16:04:00,
2013-04-15 11:05:00,35.6,28.8,29.56,SW,231,6.0,6.0,76,0.00,,,0.03,Wunderground v.1.13,2013-04-15 16:05:00,
2013-04-15 11:10:00,35.6,28.8,29.56,WSW,244,6.0,6.0,76,0.00,,,0.03,Wunderground v.1.13,2013-04-15 16:10:00,
2013-04-15 11:11:00,35.6,28.8,29.57,SW,217,6.0,6.0,76,0.00,,,0.03,Wunderground v.1.13,2013-04-15 16:11:00,
2013-04-15 11:16:00,35.7,28.9,29.56,SSW,208,5.0,9.0,76,0.00,,,0.03,Wunderground v.1.13,2013-04-15 16:16:00,
2013-04-15 11:17:00,35.7,28.9,29.56,SW,236,5.0,9.0,76,0.00,,,0.03,Wunderground v.1.13,2013-04-15 16:17:00,
2013-04-15 11:22:00,35.9,29.1,29.57,SW,230,5.0,11.0,76,0.00,,,0.03,Wunderground v.1.13,2013-04-15 16:22:00,
2013-04-15 11:24:00,35.9,28.7,29.57,WSW,242,6.0,11.0,75,0.00,,,0.03,Wunderground v.1.13,2013-04-15 16:24:00,
2013-04-15 11:28:00,35.8,28.6,29.57,SW,227,6.0,8.0,75,0.00,,,0.03,Wunderground v.1.13,2013-04-15 16:28:00,
2013-04-15 11:30:00,35.8,28.6,29.57,SSW,200,7.0,7.0,75,0.00,,,0.03,Wunderground v.1.13,2013-04-15 16:30:00,
2013-04-15 11:34:00,35.8,28.6,29.58,South,177,7.0,11.0,75,0.00,,,0.03,Wunderground v.1.13,2013-04-15 16:34:00,
2013-04-15 11:39:00,35.9,28.4,29.58,South,178,7.0,9.0,74,0.00,,,0.03,Wunderground v.1.13,2013-04-15 16:39:00,
2013-04-15 11:40:00,35.9,28.7,29.58,SSW,201,6.0,6.0,75,0.00,,,0.03,Wunderground v.1.13,2013-04-15 16:40:00,
2013-04-15 11:41:00,35.9,28.4,29.58,West,269,6.0,7.0,74,0.00,,,0.03,Wunderground v.1.13,2013-04-15 16:41:00,
2013-04-15 11:46:00,35.9,28.4,29.58,South,187,5.0,6.0,74,0.00,,,0.03,Wunderground v.1.13,2013-04-15 16:46:00,
2013-04-15 11:47:00,36.0,28.5,29.58,SW,215,5.0,9.0,74,0.00,,,0.03,Wunderground v.1.13,2013-04-15 16:47:00,
2013-04-15 11:53:00,35.8,28.3,29.59,WSW,254,7.0,7.0,74,0.00,,,0.03,Wunderground v.1.13,2013-04-15 16:53:00,
2013-04-15 11:58:00,35.9,28.4,29.59,SW,221,8.0,8.0,74,0.00,,,0.03,Wunderground v.1.13,2013-04-15 16:58:00,
2013-04-15 12:01:00,35.9,28.4,29.59,SW,236,8.0,8.0,74,0.00,,,0.03,Wunderground v.1.13,2013-04-15 17:01:00,
2013-04-15 12:03:00,35.9,28.4,29.59,WSW,240,8.0,8.0,74,0.00,,,0.03,Wunderground v.1.13,2013-04-15 17:03:00,
2013-04-15 12:07:00,36.0,28.5,29.60,SW,221,7.0,8.0,74,0.00,,,0.03,Wunderground v.1.13,2013-04-15 17:07:00,
2013-04-15 12:09:00,36.0,28.5,29.60,WSW,254,7.0,9.0,74,0.00,,,0.03,Wunderground v.1.13,2013-04-15 17:09:00,
2013-04-15 12:14:00,35.9,28.1,29.60,WSW,248,7.0,13.0,73,0.00,,,0.03,Wunderground v.1.13,2013-04-15 17:14:00,
2013-04-15 12:15:00,35.9,28.4,29.61,South,182,7.0,7.0,74,0.00,,,0.03,Wunderground v.1.13,2013-04-15 17:15:00,
2013-04-15 12:19:00,36.0,28.5,29.60,West,261,7.0,12.0,74,0.00,,,0.03,Wunderground v.1.13,2013-04-15 17:19:00,
2013-04-15 12:21:00,36.0,28.5,29.61,SSW,196,7.0,8.0,74,0.00,,,0.03,Wunderground v.1.13,2013-04-15 17:21:00,
2013-04-15 12:22:00,36.0,28.2,29.61,SW,229,7.0,8.0,73,0.00,,,0.03,Wunderground v.1.13,2013-04-15 17:22:00,
2013-04-15 12:24:00,36.0,28.2,29.60,West,259,7.0,8.0,73,0.00,,,0.03,Wunderground v.1.13,2013-04-15 17:24:00,
2013-04-15 12:28:00,36.1,28.6,29.61,WSW,246,7.0,7.0,74,0.00,,,0.03,Wunderground v.1.13,2013-04-15 17:28:00,
2013-04-15 12:29:00,36.2,28.7,29.61,West,264,7.0,11.0,74,0.00,,,0.03,Wunderground v.1.13,2013-04-15 17:29:00,
2013-04-15 12:31:00,36.2,28.7,29.61,South,175,6.0,7.0,74,0.00,,,0.03,Wunderground v.1.13,2013-04-15 17:31:00,
2013-04-15 12:33:00,36.3,28.8,29.61,WSW,257,5.0,9.0,74,0.00,,,0.03,Wunderground v.1.13,2013-04-15 17:33:00,
2013-04-15 12:35:00,36.4,28.6,29.61,SW,225,5.0,10.0,73,0.00,,,0.03,Wunderground v.1.13,2013-04-15 17:35:00,
2013-04-15 12:37:00,36.5,28.7,29.61,West,275,6.0,11.0,73,0.00,,,0.03,Wunderground v.1.13,2013-04-15 17:37:00,
2013-04-15 12:41:00,36.5,28.7,29.61,WSW,238,7.0,8.0,73,0.00,,,0.03,Wunderground v.1.13,2013-04-15 17:41:00,
2013-04-15 12:42:00,36.5,28.7,29.61,West,263,7.0,9.0,73,0.00,,,0.03,Wunderground v.1.13,2013-04-15 17:42:00,
2013-04-15 12:45:00,36.5,28.7,29.61,West,265,7.0,9.0,73,0.00,,,0.03,Wunderground v.1.13,2013-04-15 17:45:00,
2013-04-15 12:48:00,36.5,28.7,29.61,SW,215,7.0,10.0,73,0.00,,,0.03,Wunderground v.1.13,2013-04-15 17:48:00,
2013-04-15 12:51:00,36.6,28.8,29.61,WSW,244,7.0,7.0,73,0.00,,,0.03,Wunderground v.1.13,2013-04-15 17:51:00,
2013-04-15 12:52:00,36.6,28.8,29.61,SSE,165,8.0,8.0,73,0.00,,,0.03,Wunderground v.1.13,2013-04-15 17:52:00,
2013-04-15 12:56:00,36.6,28.8,29.61,SSW,209,7.0,10.0,73,0.00,,,0.03,Wunderground v.1.13,2013-04-15 17:56:00,
2013-04-15 12:57:00,36.6,28.8,29.61,WSW,254,7.0,13.0,73,0.00,,,0.03,Wunderground v.1.13,2013-04-15 17:57:00,
2013-04-15 13:00:00,36.8,28.6,29.61,South,187,8.0,14.0,72,0.00,,,0.03,Wunderground v.1.13,2013-04-15 18:00:00,
2013-04-15 13:02:00,36.9,30.4,29.61,SW,216,8.0,14.0,77,0.00,,,0.03,Wunderground v.1.13,2013-04-15 18:02:00,
2013-04-15 13:05:00,37.3,29.1,29.61,WSW,245,8.0,8.0,72,0.00,,,0.03,Wunderground v.1.13,2013-04-15 18:05:00,
2013-04-15 13:07:00,37.4,28.9,29.61,West,259,8.0,13.0,71,0.00,,,0.03,Wunderground v.1.13,2013-04-15 18:07:00,
2013-04-15 13:09:00,37.4,28.9,29.61,WSW,253,8.0,13.0,71,0.00,,,0.03,Wunderground v.1.13,2013-04-15 18:09:00,
2013-04-15 13:14:00,37.6,29.0,29.62,West,263,7.0,8.0,71,0.00,,,0.03,Wunderground v.1.13,2013-04-15 18:14:00,
2013-04-15 13:15:00,37.6,29.4,29.61,WSW,254,7.0,7.0,72,0.00,,,0.03,Wunderground v.1.13,2013-04-15 18:15:00,
2013-04-15 13:20:00,37.9,29.3,29.62,SW,224,6.0,6.0,71,0.00,,,0.03,Wunderground v.1.13,2013-04-15 18:20:00,
2013-04-15 13:23:00,38.1,29.5,29.62,SSW,199,6.0,18.0,71,0.00,,,0.03,Wunderground v.1.13,2013-04-15 18:23:00,
2013-04-15 13:27:00,38.1,29.2,29.62,SW,230,7.0,7.0,70,0.00,,,0.03,Wunderground v.1.13,2013-04-15 18:27:00,
2013-04-15 13:29:00,38.0,29.1,29.63,SW,221,7.0,13.0,70,0.00,,,0.03,Wunderground v.1.13,2013-04-15 18:29:00,
2013-04-15 13:30:00,37.9,29.0,29.63,West,259,7.0,10.0,70,0.00,,,0.03,Wunderground v.1.13,2013-04-15 18:30:00,
2013-04-15 13:33:00,37.8,29.2,29.63,SE,146,8.0,10.0,71,0.00,,,0.03,Wunderground v.1.13,2013-04-15 18:33:00,
2013-04-15 13:34:00,37.8,29.2,29.63,SSW,192,8.0,11.0,71,0.00,,,0.03,Wunderground v.1.13,2013-04-15 18:34:00,
2013-04-15 13:35:00,37.7,29.1,29.63,SW,230,8.0,9.0,71,0.00,,,0.03,Wunderground v.1.13,2013-04-15 18:35:00,
2013-04-15 13:36:00,37.6,28.7,29.63,SW,222,8.0,12.0,70,0.00,,,0.03,Wunderground v.1.13,2013-04-15 18:36:00,
2013-04-15 13:39:00,37.5,28.9,29.64,WSW,248,8.0,12.0,71,0.00,,,0.03,Wunderground v.1.13,2013-04-15 18:39:00,
2013-04-15 13:42:00,37.6,29.0,29.63,West,273,7.0,9.0,71,0.00,,,0.03,Wunderground v.1.13,2013-04-15 18:42:00,
2013-04-15 13:43:00,37.6,29.0,29.64,SW,223,8.0,9.0,71,0.00,,,0.03,Wunderground v.1.13,2013-04-15 18:43:00,
2013-04-15 13:44:00,37.6,29.0,29.64,SW,223,8.0,9.0,71,0.00,,,0.03,Wunderground v.1.13,2013-04-15 18:44:00,
2013-04-15 13:49:00,37.7,29.1,29.65,WSW,252,6.0,11.0,71,0.00,,,0.03,Wunderground v.1.13,2013-04-15 18:49:00,
2013-04-15 13:50:00,37.7,29.1,29.64,West,260,6.0,9.0,71,0.00,,,0.03,Wunderground v.1.13,2013-04-15 18:50:00,
2013-04-15 13:51:00,37.6,29.0,29.64,WSW,246,6.0,9.0,71,0.00,,,0.03,Wunderground v.1.13,2013-04-15 18:51:00,
2013-04-15 13:52:00,37.6,29.0,29.64,WSW,249,6.0,9.0,71,0.00,,,0.03,Wunderground v.1.13,2013-04-15 18:52:00,
2013-04-15 13:53:00,37.5,28.9,29.65,WSW,244,6.0,9.0,71,0.00,,,0.03,Wunderground v.1.13,2013-04-15 18:53:00,
2013-04-15 13:54:00,37.5,28.9,29.65,SW,234,6.0,9.0,71,0.00,,,0.03,Wunderground v.1.13,2013-04-15 18:54:00,
2013-04-15 13:57:00,37.4,29.2,29.65,WSW,237,6.0,7.0,72,0.00,,,0.03,Wunderground v.1.13,2013-04-15 18:57:00,
2013-04-15 13:59:00,37.4,29.2,29.65,West,259,7.0,9.0,72,0.00,,,0.03,Wunderground v.1.13,2013-04-15 18:59:00,
2013-04-15 14:00:00,37.4,29.2,29.65,West,273,7.0,7.0,72,0.00,,,0.03,Wunderground v.1.13,2013-04-15 19:00:00,
2013-04-15 14:02:00,37.3,29.1,29.65,West,260,7.0,10.0,72,0.00,,,0.03,Wunderground v.1.13,2013-04-15 19:02:00,
2013-04-15 14:03:00,37.3,29.1,29.65,WSW,239,7.0,10.0,72,0.00,,,0.03,Wunderground v.1.13,2013-04-15 19:03:00,
2013-04-15 14:06:00,37.4,29.2,29.65,WSW,252,6.0,18.0,72,0.00,,,0.03,Wunderground v.1.13,2013-04-15 19:06:00,
2013-04-15 14:07:00,37.5,28.9,29.65,SSW,207,7.0,18.0,71,0.00,,,0.03,Wunderground v.1.13,2013-04-15 19:07:00,
2013-04-15 14:10:00,37.7,29.1,29.65,SW,227,7.0,7.0,71,0.00,,,0.03,Wunderground v.1.13,2013-04-15 19:10:00,
2013-04-15 14:12:00,37.9,29.7,29.65,SW,215,7.0,9.0,72,0.00,,,0.03,Wunderground v.1.13,2013-04-15 19:12:00,
2013-04-15 14:13:00,37.9,29.3,29.66,SSW,205,7.0,9.0,71,0.00,,,0.03,Wunderground v.1.13,2013-04-15 19:13:00,
2013-04-15 14:17:00,38.2,29.3,29.66,WSW,257,7.0,8.0,70,0.00,,,0.03,Wunderground v.1.13,2013-04-15 19:17:00,
2013-04-15 14:18:00,38.2,29.3,29.66,WSW,257,7.0,8.0,70,0.00,,,0.03,Wunderground v.1.13,2013-04-15 19:18:00,
2013-04-15 14:19:00,38.3,29.7,29.66,West,260,6.0,8.0,71,0.00,,,0.03,Wunderground v.1.13,2013-04-15 19:19:00,
2013-04-15 14:22:00,38.5,29.9,29.66,SSE,148,7.0,8.0,71,0.00,,,0.03,Wunderground v.1.13,2013-04-15 19:22:00,
2013-04-15 14:24:00,38.6,29.7,29.66,SSW,200,7.0,8.0,70,0.00,,,0.03,Wunderground v.1.13,2013-04-15 19:24:00,
2013-04-15 14:27:00,38.5,29.2,29.65,West,276,7.0,14.0,69,0.00,,,0.03,Wunderground v.1.13,2013-04-15 19:27:00,
2013-04-15 14:28:00,38.5,29.2,29.66,WSW,249,7.0,14.0,69,0.00,,,0.03,Wunderground v.1.13,2013-04-15 19:28:00,
2013-04-15 14:32:00,38.6,29.7,29.66,SW,229,7.0,12.0,70,0.00,,,0.03,Wunderground v.1.13,2013-04-15 19:32:00,
2013-04-15 14:33:00,38.5,29.2,29.66,SSW,211,8.0,12.0,69,0.00,,,0.03,Wunderground v.1.13,2013-04-15 19:33:00,
2013-04-15 14:34:00,38.5,29.6,29.66,SSW,204,8.0,12.0,70,0.00,,,0.03,Wunderground v.1.13,2013-04-15 19:34:00,
2013-04-15 14:40:00,38.4,29.5,29.67,WSW,238,8.0,15.0,70,0.00,,,0.03,Wunderground v.1.13,2013-04-15 19:40:00,
2013-04-15 14:42:00,38.4,29.5,29.67,SW,234,9.0,15.0,70,0.00,,,0.03,Wunderground v.1.13,2013-04-15 19:42:00,
2013-04-15 14:46:00,38.6,29.7,29.67,WSW,246,8.0,9.0,70,0.00,,,0.03,Wunderground v.1.13,2013-04-15 19:46:00,
2013-04-15 14:47:00,38.5,29.6,29.66,West,264,8.0,15.0,70,0.00,,,0.03,Wunderground v.1.13,2013-04-15 19:47:00,
2013-04-15 14:49:00,38.3,29.4,29.67,WSW,245,9.0,15.0,70,0.00,,,0.03,Wunderground v.1.13,2013-04-15 19:49:00,
2013-04-15 14:52:00,38.3,29.4,29.67,WSW,255,8.0,12.0,70,0.00,,,0.03,Wunderground v.1.13,2013-04-15 19:52:00,
2013-04-15 14:58:00,38.1,29.2,29.67,SW,230,8.0,12.0,70,0.00,,,0.03,Wunderground v.1.13,2013-04-15 19:58:00,
2013-04-15 15:00:00,38.0,29.1,29.67,West,265,8.0,8.0,70,0.00,,,0.03,Wunderground v.1.13,2013-04-15 20:00:00,
2013-04-15 15:03:00,38.0,29.4,29.68,West,265,8.0,10.0,71,0.00,,,0.03,Wunderground v.1.13,2013-04-15 20:03:00,
2013-04-15 15:04:00,38.0,29.4,29.68,WSW,257,8.0,10.0,71,0.00,,,0.03,Wunderground v.1.13,2013-04-15 20:04:00,
2013-04-15 15:05:00,37.9,29.0,29.68,WSW,257,8.0,8.0,70,0.00,,,0.03,Wunderground v.1.13,2013-04-15 20:05:00,
2013-04-15 15:06:00,37.9,29.3,29.68,WSW,258,8.0,23.0,71,0.00,,,0.03,Wunderground v.1.13,2013-04-15 20:06:00,
2013-04-15 15:09:00,37.8,28.9,29.68,WSW,241,8.0,23.0,70,0.00,,,0.03,Wunderground v.1.13,2013-04-15 20:09:00,
2013-04-15 15:10:00,37.7,28.8,29.68,SW,229,8.0,9.0,70,0.00,,,0.03,Wunderground v.1.13,2013-04-15 20:10:00,
2013-04-15 15:12:00,37.7,28.8,29.68,WSW,250,9.0,12.0,70,0.00,,,0.03,Wunderground v.1.13,2013-04-15 20:12:00,
2013-04-15 15:13:00,37.7,28.8,29.69,WSW,257,9.0,12.0,70,0.00,,,0.03,Wunderground v.1.13,2013-04-15 20:13:00,
2013-04-15 15:17:00,37.6,29.0,29.69,WSW,251,9.0,9.0,71,0.00,,,0.03,Wunderground v.1.13,2013-04-15 20:17:00,
2013-04-15 15:19:00,37.6,29.0,29.69,WSW,257,8.0,14.0,71,0.00,,,0.03,Wunderground v.1.13,2013-04-15 20:19:00,
2013-04-15 15:21:00,37.6,29.0,29.69,WSW,237,8.0,8.0,71,0.00,,,0.03,Wunderground v.1.13,2013-04-15 20:21:00,
2013-04-15 15:22:00,37.6,29.0,29.69,WSW,242,8.0,11.0,71,0.00,,,0.03,Wunderground v.1.13,2013-04-15 20:22:00,
2013-04-15 15:24:00,37.6,29.0,29.69,WSW,257,8.0,11.0,71,0.00,,,0.03,Wunderground v.1.13,2013-04-15 20:24:00,
2013-04-15 15:27:00,37.6,29.0,29.69,West,261,8.0,18.0,71,0.00,,,0.03,Wunderground v.1.13,2013-04-15 20:27:00,
2013-04-15 15:29:00,37.4,28.5,29.69,WSW,242,10.0,18.0,70,0.00,,,0.03,Wunderground v.1.13,2013-04-15 20:29:00,
2013-04-15 15:32:00,37.4,28.5,29.69,WSW,248,12.0,15.0,70,0.00,,,0.03,Wunderground v.1.13,2013-04-15 20:32:00,
2013-04-15 15:33:00,37.3,28.8,29.69,WSW,246,12.0,15.0,71,0.00,,,0.03,Wunderground v.1.13,2013-04-15 20:33:00,
2013-04-15 15:35:00,37.3,28.8,29.69,West,262,12.0,12.0,71,0.00,,,0.03,Wunderground v.1.13,2013-04-15 20:35:00,
2013-04-15 15:37:00,37.4,28.9,29.69,WSW,257,12.0,12.0,71,0.00,,,0.03,Wunderground v.1.13,2013-04-15 20:37:00,
2013-04-15 15:38:00,37.4,28.9,29.70,West,265,11.0,12.0,71,0.00,,,0.03,Wunderground v.1.13,2013-04-15 20:38:00,
2013-04-15 15:39:00,37.5,28.9,29.70,WSW,252,11.0,12.0,71,0.00,,,0.03,Wunderground v.1.13,2013-04-15 20:39:00,
2013-04-15 15:42:00,37.6,29.0,29.70,WSW,255,9.0,10.0,71,0.00,,,0.03,Wunderground v.1.13,2013-04-15 20:42:00,
2013-04-15 15:43:00,37.6,28.7,29.70,WSW,246,9.0,10.0,70,0.00,,,0.03,Wunderground v.1.13,2013-04-15 20:43:00,
2013-04-15 15:44:00,37.6,29.0,29.70,West,278,8.0,10.0,71,0.00,,,0.03,Wunderground v.1.13,2013-04-15 20:44:00,
2013-04-15 15:45:00,37.7,29.1,29.70,WSW,256,8.0,14.0,71,0.00,,,0.03,Wunderground v.1.13,2013-04-15 20:45:00,
2013-04-15 15:46:00,37.7,28.8,29.70,West,269,8.0,14.0,70,0.00,,,0.03,Wunderground v.1.13,2013-04-15 20:46:00,
2013-04-15 15:49:00,37.7,28.8,29.70,WSW,240,8.0,14.0,70,0.00,,,0.03,Wunderground v.1.13,2013-04-15 20:49:00,
2013-04-15 15:52:00,37.7,28.8,29.70,West,259,9.0,9.0,70,0.00,,,0.03,Wunderground v.1.13,2013-04-15 20:52:00,
2013-04-15 15:53:00,37.7,29.1,29.70,WSW,253,8.0,9.0,71,0.00,,,0.03,Wunderground v.1.13,2013-04-15 20:53:00,
2013-04-15 15:54:00,37.7,28.8,29.70,WSW,252,8.0,9.0,70,0.00,,,0.03,Wunderground v.1.13,2013-04-15 20:54:00,
2013-04-15 15:57:00,37.7,28.8,29.71,WSW,250,8.0,12.0,70,0.00,,,0.03,Wunderground v.1.13,2013-04-15 20:57:00,
2013-04-15 15:59:00,37.8,29.2,29.71,WSW,257,8.0,12.0,71,0.00,,,0.03,Wunderground v.1.13,2013-04-15 20:59:00,
2013-04-15 16:03:00,37.9,29.0,29.71,West,265,7.0,14.0,70,0.00,,,0.03,Wunderground v.1.13,2013-04-15 21:03:00,
2013-04-15 16:04:00,38.0,29.4,29.71,SW,219,7.0,14.0,71,0.00,,,0.03,Wunderground v.1.13,2013-04-15 21:04:00,
2013-04-15 16:06:00,38.2,29.6,29.71,WNW,283,7.0,13.0,71,0.00,,,0.03,Wunderground v.1.13,2013-04-15 21:06:00,
2013-04-15 16:09:00,38.1,28.8,29.71,West,260,8.0,13.0,69,0.00,,,0.03,Wunderground v.1.13,2013-04-15 21:09:00,
2013-04-15 16:10:00,38.1,28.8,29.71,WSW,256,9.0,9.0,69,0.00,,,0.03,Wunderground v.1.13,2013-04-15 21:10:00,
2013-04-15 16:12:00,38.0,28.7,29.71,SW,215,10.0,10.0,69,0.00,,,0.03,Wunderground v.1.13,2013-04-15 21:12:00,
2013-04-15 16:14:00,37.9,28.6,29.71,West,263,10.0,19.0,69,0.00,,,0.03,Wunderground v.1.13,2013-04-15 21:14:00,
2013-04-15 16:16:00,37.7,28.4,29.71,SW,234,12.0,23.0,69,0.00,,,0.03,Wunderground v.1.13,2013-04-15 21:16:00,
2013-04-15 16:17:00,37.6,28.3,29.71,WSW,252,13.0,23.0,69,0.00,,,0.03,Wunderground v.1.13,2013-04-15 21:17:00,
2013-04-15 16:18:00,37.6,28.3,29.71,West,276,13.0,23.0,69,0.00,,,0.03,Wunderground v.1.13,2013-04-15 21:18:00,
2013-04-15 16:19:00,37.6,28.3,29.71,WSW,249,13.0,23.0,69,0.00,,,0.03,Wunderground v.1.13,2013-04-15 21:19:00,
2013-04-15 16:22:00,37.7,28.4,29.71,West,260,12.0,13.0,69,0.00,,,0.03,Wunderground v.1.13,2013-04-15 21:22:00,
2013-04-15 16:24:00,37.7,28.4,29.72,WSW,256,12.0,16.0,69,0.00,,,0.03,Wunderground v.1.13,2013-04-15 21:24:00,
2013-04-15 16:25:00,37.6,28.3,29.72,WSW,248,12.0,12.0,69,0.00,,,0.03,Wunderground v.1.13,2013-04-15 21:25:00,
2013-04-15 16:27:00,37.7,28.4,29.72,WSW,250,11.0,18.0,69,0.00,,,0.03,Wunderground v.1.13,2013-04-15 21:27:00,
2013-04-15 16:28:00,37.6,28.3,29.72,WSW,243,11.0,18.0,69,0.00,,,0.03,Wunderground v.1.13,2013-04-15 21:28:00,
2013-04-15 16:31:00,37.7,28.4,29.72,WSW,254,11.0,11.0,69,0.00,,,0.03,Wunderground v.1.13,2013-04-15 21:31:00,
2013-04-15 16:32:00,37.8,28.9,29.72,West,265,10.0,11.0,70,0.00,,,0.03,Wunderground v.1.13,2013-04-15 21:32:00,
2013-04-15 16:33:00,37.8,28.5,29.72,WSW,252,10.0,11.0,69,0.00,,,0.03,Wunderground v.1.13,2013-04-15 21:33:00,
2013-04-15 16:34:00,37.8,28.5,29.72,WSW,257,9.0,11.0,69,0.00,,,0.03,Wunderground v.1.13,2013-04-15 21:34:00,
2013-04-15 16:37:00,37.7,28.4,29.72,West,263,9.0,13.0,69,0.00,,,0.03,Wunderground v.1.13,2013-04-15 21:37:00,
2013-04-15 16:39:00,37.7,28.4,29.72,WSW,242,8.0,13.0,69,0.00,,,0.03,Wunderground v.1.13,2013-04-15 21:39:00,
2013-04-15 16:40:00,37.7,28.8,29.72,WSW,237,8.0,14.0,70,0.00,,,0.03,Wunderground v.1.13,2013-04-15 21:40:00,
2013-04-15 16:44:00,37.5,28.2,29.73,West,263,10.0,14.0,69,0.00,,,0.03,Wunderground v.1.13,2013-04-15 21:44:00,
2013-04-15 16:45:00,37.5,28.2,29.73,WSW,240,10.0,10.0,69,0.00,,,0.03,Wunderground v.1.13,2013-04-15 21:45:00,
2013-04-15 16:49:00,37.4,28.5,29.73,WSW,248,10.0,10.0,70,0.00,,,0.03,Wunderground v.1.13,2013-04-15 21:49:00,
2013-04-15 16:50:00,37.4,28.5,29.73,West,267,10.0,10.0,70,0.00,,,0.03,Wunderground v.1.13,2013-04-15 21:50:00,
2013-04-15 16:51:00,37.4,28.5,29.73,WSW,248,10.0,14.0,70,0.00,,,0.03,Wunderground v.1.13,2013-04-15 21:51:00,
2013-04-15 16:52:00,37.4,28.5,29.73,WSW,246,10.0,14.0,70,0.00,,,0.03,Wunderground v.1.13,2013-04-15 21:52:00,
2013-04-15 16:55:00,37.4,28.5,29.73,WSW,256,8.0,8.0,70,0.00,,,0.03,Wunderground v.1.13,2013-04-15 21:55:00,
2013-04-15 16:58:00,37.3,28.4,29.73,WSW,248,8.0,10.0,70,0.00,,,0.03,Wunderground v.1.13,2013-04-15 21:58:00,
2013-04-15 16:59:00,37.3,28.4,29.73,WSW,256,8.0,10.0,70,0.00,,,0.03,Wunderground v.1.13,2013-04-15 21:59:00,
2013-04-15 17:01:00,37.2,28.3,29.73,WSW,252,8.0,10.0,70,0.00,,,0.03,Wunderground v.1.13,2013-04-15 22:01:00,
2013-04-15 17:04:00,37.1,28.2,29.73,WSW,248,9.0,11.0,70,0.00,,,0.03,Wunderground v.1.13,2013-04-15 22:04:00,
2013-04-15 17:06:00,37.1,28.2,29.74,WSW,253,10.0,18.0,70,0.00,,,0.03,Wunderground v.1.13,2013-04-15 22:06:00,
2013-04-15 17:07:00,37.0,28.1,29.73,WSW,246,10.0,18.0,70,0.00,,,0.03,Wunderground v.1.13,2013-04-15 22:07:00,
2013-04-15 17:08:00,37.0,28.1,29.74,West,267,10.0,18.0,70,0.00,,,0.03,Wunderground v.1.13,2013-04-15 22:08:00,
2013-04-15 17:12:00,37.0,28.5,29.74,WSW,250,10.0,13.0,71,0.00,,,0.03,Wunderground v.1.13,2013-04-15 22:12:00,
2013-04-15 17:13:00,37.0,28.5,29.74,WSW,249,9.0,13.0,71,0.00,,,0.03,Wunderground v.1.13,2013-04-15 22:13:00,
2013-04-15 17:14:00,37.0,28.5,29.75,WSW,257,9.0,13.0,71,0.00,,,0.03,Wunderground v.1.13,2013-04-15 22:14:00,
2013-04-15 17:16:00,37.0,28.1,29.75,WSW,241,8.0,11.0,70,0.00,,,0.03,Wunderground v.1.13,2013-04-15 22:16:00,
2013-04-15 17:17:00,37.0,28.1,29.75,WSW,242,9.0,15.0,70,0.00,,,0.03,Wunderground v.1.13,2013-04-15 22:17:00,
2013-04-15 17:19:00,36.9,28.0,29.75,WSW,254,9.0,15.0,70,0.00,,,0.03,Wunderground v.1.13,2013-04-15 22:19:00,
2013-04-15 17:22:00,36.9,28.4,29.75,SW,221,9.0,13.0,71,0.00,,,0.03,Wunderground v.1.13,2013-04-15 22:22:00,
2013-04-15 17:24:00,36.8,28.3,29.75,WSW,246,10.0,15.0,71,0.00,,,0.03,Wunderground v.1.13,2013-04-15 22:24:00,
2013-04-15 17:25:00,36.8,28.3,29.75,West,275,11.0,11.0,71,0.00,,,0.03,Wunderground v.1.13,2013-04-15 22:25:00,
2013-04-15 17:30:00,36.7,28.5,29.75,West,261,10.0,10.0,72,0.00,,,0.03,Wunderground v.1.13,2013-04-15 22:30:00,
2013-04-15 17:31:00,36.7,28.5,29.75,West,271,10.0,10.0,72,0.00,,,0.03,Wunderground v.1.13,2013-04-15 22:31:00,
2013-04-15 17:32:00,36.7,28.5,29.75,WSW,255,10.0,10.0,72,0.00,,,0.03,Wunderground v.1.13,2013-04-15 22:32:00,
2013-04-15 17:35:00,36.7,28.2,29.75,WSW,249,9.0,13.0,71,0.00,,,0.03,Wunderground v.1.13,2013-04-15 22:35:00,
2013-04-15 17:36:00,36.6,28.1,29.75,SW,228,9.0,13.0,71,0.00,,,0.03,Wunderground v.1.13,2013-04-15 22:36:00,
2013-04-15 17:38:00,36.7,28.2,29.75,WSW,238,8.0,13.0,71,0.00,,,0.03,Wunderground v.1.13,2013-04-15 22:38:00,
2013-04-15 17:39:00,36.7,28.5,29.75,WSW,245,8.0,13.0,72,0.00,,,0.03,Wunderground v.1.13,2013-04-15 22:39:00,
2013-04-15 17:40:00,36.7,28.5,29.75,WSW,250,8.0,8.0,72,0.00,,,0.03,Wunderground v.1.13,2013-04-15 22:40:00,
2013-04-15 17:45:00,36.7,28.5,29.75,WSW,249,8.0,8.0,72,0.00,,,0.03,Wunderground v.1.13,2013-04-15 22:45:00,
2013-04-15 17:48:00,36.7,28.5,29.75,West,269,7.0,10.0,72,0.00,,,0.03,Wunderground v.1.13,2013-04-15 22:48:00,
2013-04-15 17:50:00,36.7,28.5,29.75,WSW,239,8.0,10.0,72,0.00,,,0.03,Wunderground v.1.13,2013-04-15 22:50:00,
2013-04-15 17:54:00,36.7,28.5,29.76,West,279,8.0,10.0,72,0.00,,,0.03,Wunderground v.1.13,2013-04-15 22:54:00,
2013-04-15 17:57:00,36.7,28.2,29.76,West,259,8.0,20.0,71,0.00,,,0.03,Wunderground v.1.13,2013-04-15 22:57:00,
2013-04-15 17:58:00,36.7,28.2,29.76,WSW,250,8.0,20.0,71,0.00,,,0.03,Wunderground v.1.13,2013-04-15 22:58:00,
2013-04-15 17:59:00,36.6,28.1,29.76,WSW,239,9.0,20.0,71,0.00,,,0.03,Wunderground v.1.13,2013-04-15 22:59:00,
2013-04-15 18:03:00,36.7,28.5,29.76,West,264,8.0,8.0,72,0.00,,,0.03,Wunderground v.1.13,2013-04-15 23:03:00,
2013-04-15 18:04:00,36.7,28.5,29.76,WSW,257,8.0,8.0,72,0.00,,,0.03,Wunderground v.1.13,2013-04-15 23:04:00,
2013-04-15 18:06:00,36.7,28.5,29.76,West,263,7.0,7.0,72,0.00,,,0.03,Wunderground v.1.13,2013-04-15 23:06:00,
2013-04-15 18:09:00,36.7,28.5,29.76,WNW,286,6.0,12.0,72,0.00,,,0.03,Wunderground v.1.13,2013-04-15 23:09:00,
2013-04-15 18:10:00,36.7,28.5,29.77,WSW,244,6.0,6.0,72,0.00,,,0.03,Wunderground v.1.13,2013-04-15 23:10:00,
2013-04-15 18:12:00,36.7,28.5,29.77,West,271,6.0,6.0,72,0.00,,,0.03,Wunderground v.1.13,2013-04-15 23:12:00,
2013-04-15 18:13:00,36.7,28.5,29.77,West,277,6.0,10.0,72,0.00,,,0.03,Wunderground v.1.13,2013-04-15 23:13:00,
2013-04-15 18:17:00,36.6,28.4,29.77,WSW,242,7.0,9.0,72,0.00,,,0.03,Wunderground v.1.13,2013-04-15 23:17:00,
2013-04-15 18:18:00,36.6,28.4,29.77,West,273,7.0,9.0,72,0.00,,,0.03,Wunderground v.1.13,2013-04-15 23:18:00,
2013-04-15 18:19:00,36.5,28.3,29.78,West,261,7.0,9.0,72,0.00,,,0.03,Wunderground v.1.13,2013-04-15 23:19:00,
2013-04-15 18:21:00,36.5,28.3,29.78,WSW,253,7.0,14.0,72,0.00,,,0.03,Wunderground v.1.13,2013-04-15 23:21:00,
2013-04-15 18:22:00,36.5,28.3,29.78,WSW,253,8.0,14.0,72,0.00,,,0.03,Wunderground v.1.13,2013-04-15 23:22:00,
2013-04-15 18:24:00,36.4,28.2,29.78,WSW,255,8.0,14.0,72,0.00,,,0.03,Wunderground v.1.13,2013-04-15 23:24:00,
2013-04-15 18:27:00,36.4,28.2,29.78,West,259,7.0,11.0,72,0.00,,,0.03,Wunderground v.1.13,2013-04-15 23:27:00,
2013-04-15 18:29:00,36.4,28.2,29.78,WSW,248,7.0,13.0,72,0.00,,,0.03,Wunderground v.1.13,2013-04-15 23:29:00,
2013-04-15 18:31:00,36.4,28.6,29.78,WSW,250,7.0,16.0,73,0.00,,,0.03,Wunderground v.1.13,2013-04-15 23:31:00,
2013-04-15 18:33:00,36.3,28.1,29.78,WSW,257,7.0,16.0,72,0.00,,,0.03,Wunderground v.1.13,2013-04-15 23:33:00,
2013-04-15 18:35:00,36.3,28.5,29.78,WSW,254,7.0,11.0,73,0.00,,,0.03,Wunderground v.1.13,2013-04-15 23:35:00,
2013-04-15 18:38:00,36.3,28.5,29.79,West,259,7.0,11.0,73,0.00,,,0.03,Wunderground v.1.13,2013-04-15 23:38:00,
2013-04-15 18:39:00,36.3,28.5,29.78,WSW,244,7.0,18.0,73,0.00,,,0.03,Wunderground v.1.13,2013-04-15 23:39:00,
2013-04-15 18:40:00,36.2,28.4,29.78,West,270,7.0,9.0,73,0.00,,,0.03,Wunderground v.1.13,2013-04-15 23:40:00,
2013-04-15 18:41:00,36.3,28.1,29.79,WSW,254,8.0,9.0,72,0.00,,,0.03,Wunderground v.1.13,2013-04-15 23:41:00,
2013-04-15 18:44:00,36.3,28.1,29.78,West,263,8.0,9.0,72,0.00,,,0.03,Wunderground v.1.13,2013-04-15 23:44:00,
2013-04-15 18:47:00,36.3,28.1,29.79,West,260,8.0,14.0,72,0.00,,,0.03,Wunderground v.1.13,2013-04-15 23:47:00,
2013-04-15 18:49:00,36.3,28.5,29.79,WSW,252,9.0,14.0,73,0.00,,,0.03,Wunderground v.1.13,2013-04-15 23:49:00,
2013-04-15 18:51:00,36.2,28.4,29.79,WSW,256,8.0,9.0,73,0.00,,,0.03,Wunderground v.1.13,2013-04-15 23:51:00,
2013-04-15 18:53:00,36.2,28.4,29.79,WSW,246,8.0,9.0,73,0.00,,,0.03,Wunderground v.1.13,2013-04-15 23:53:00,
2013-04-15 18:56:00,36.1,28.6,29.80,WSW,257,8.0,8.0,74,0.00,,,0.03,Wunderground v.1.13,2013-04-15 23:56:00,
2013-04-15 18:57:00,36.1,28.6,29.79,WSW,254,8.0,8.0,74,0.00,,,0.03,Wunderground v.1.13,2013-04-15 23:57:00,
2013-04-15 18:58:00,36.1,28.6,29.80,WSW,250,7.0,8.0,74,0.00,,,0.03,Wunderground v.1.13,2013-04-15 23:58:00,
2013-04-15 19:02:00,36.1,28.6,29.80,West,265,7.0,7.0,74,0.00,,,0.03,Wunderground v.1.13,2013-04-16 00:02:00,
2013-04-15 19:04:00,36.1,28.6,29.80,WSW,254,6.0,7.0,74,0.00,,,0.03,Wunderground v.1.13,2013-04-16 00:04:00,
2013-04-15 19:05:00,36.1,28.6,29.80,West,261,6.0,10.0,74,0.00,,,0.03,Wunderground v.1.13,2013-04-16 00:05:00,
2013-04-15 19:06:00,36.2,28.7,29.80,WSW,254,6.0,10.0,74,0.00,,,0.03,Wunderground v.1.13,2013-04-16 00:06:00,
2013-04-15 19:07:00,36.1,28.6,29.80,WSW,258,6.0,10.0,74,0.00,,,0.03,Wunderground v.1.13,2013-04-16 00:07:00,
2013-04-15 19:10:00,36.1,28.6,29.80,WSW,248,7.0,9.0,74,0.00,,,0.03,Wunderground v.1.13,2013-04-16 00:10:00,
2013-04-15 19:11:00,36.1,28.6,29.80,WSW,240,7.0,9.0,74,0.00,,,0.03,Wunderground v.1.13,2013-04-16 00:11:00,
2013-04-15 19:14:00,36.1,28.6,29.80,WSW,258,7.0,9.0,74,0.00,,,0.03,Wunderground v.1.13,2013-04-16 00:14:00,
2013-04-15 19:16:00,36.1,28.6,29.81,WSW,246,7.0,7.0,74,0.00,,,0.03,Wunderground v.1.13,2013-04-16 00:16:00,
2013-04-15 19:17:00,36.1,28.9,29.81,WSW,238,7.0,7.0,75,0.00,,,0.03,Wunderground v.1.13,2013-04-16 00:17:00,
2013-04-15 19:18:00,36.1,28.6,29.81,WSW,238,7.0,7.0,74,0.00,,,0.03,Wunderground v.1.13,2013-04-16 00:18:00,
2013-04-15 19:20:00,36.1,28.9,29.81,West,261,6.0,6.0,75,0.00,,,0.03,Wunderground v.1.13,2013-04-16 00:20:00,
2013-04-15 19:21:00,36.1,28.9,29.81,West,273,6.0,8.0,75,0.00,,,0.03,Wunderground v.1.13,2013-04-16 00:21:00,
2013-04-15 19:23:00,36.1,28.9,29.80,WSW,250,5.0,9.0,75,0.00,,,0.03,Wunderground v.1.13,2013-04-16 00:23:00,
2013-04-15 19:24:00,36.1,28.9,29.80,WSW,258,5.0,9.0,75,0.00,,,0.03,Wunderground v.1.13,2013-04-16 00:24:00,
2013-04-15 19:25:00,36.1,28.9,29.80,West,267,6.0,7.0,75,0.00,,,0.03,Wunderground v.1.13,2013-04-16 00:25:00,
2013-04-15 19:26:00,36.1,28.9,29.81,WSW,249,6.0,8.0,75,0.00,,,0.03,Wunderground v.1.13,2013-04-16 00:26:00,
2013-04-15 19:31:00,36.1,28.9,29.80,West,260,6.0,6.0,75,0.00,,,0.03,Wunderground v.1.13,2013-04-16 00:31:00,
2013-04-15 19:33:00,36.0,28.8,29.80,West,259,6.0,11.0,75,0.00,,,0.03,Wunderground v.1.13,2013-04-16 00:33:00,
2013-04-15 19:34:00,36.0,28.8,29.80,WSW,244,6.0,11.0,75,0.00,,,0.03,Wunderground v.1.13,2013-04-16 00:34:00,
2013-04-15 19:35:00,36.0,28.8,29.80,West,259,6.0,11.0,75,0.00,,,0.03,Wunderground v.1.13,2013-04-16 00:35:00,
2013-04-15 19:38:00,36.0,28.8,29.80,SW,233,6.0,6.0,75,0.00,,,0.03,Wunderground v.1.13,2013-04-16 00:38:00,
2013-04-15 19:39:00,36.0,28.8,29.80,WSW,254,5.0,7.0,75,0.00,,,0.03,Wunderground v.1.13,2013-04-16 00:39:00,
2013-04-15 19:40:00,36.0,28.8,29.80,WSW,254,5.0,9.0,75,0.00,,,0.03,Wunderground v.1.13,2013-04-16 00:40:00,
2013-04-15 19:43:00,36.0,28.8,29.80,WSW,258,5.0,6.0,75,0.00,,,0.03,Wunderground v.1.13,2013-04-16 00:43:00,
2013-04-15 19:44:00,35.9,28.7,29.80,WSW,254,5.0,6.0,75,0.00,,,0.03,Wunderground v.1.13,2013-04-16 00:44:00,
2013-04-15 19:45:00,35.9,28.7,29.80,West,259,5.0,6.0,75,0.00,,,0.03,Wunderground v.1.13,2013-04-16 00:45:00,
2013-04-15 19:48:00,35.9,28.7,29.80,WSW,257,5.0,7.0,75,0.00,,,0.03,Wunderground v.1.13,2013-04-16 00:48:00,
2013-04-15 19:49:00,35.9,28.7,29.81,WSW,254,5.0,7.0,75,0.00,,,0.03,Wunderground v.1.13,2013-04-16 00:49:00,
2013-04-15 19:50:00,35.9,28.7,29.81,West,260,5.0,7.0,75,0.00,,,0.03,Wunderground v.1.13,2013-04-16 00:50:00,
2013-04-15 19:52:00,35.9,28.7,29.81,WSW,240,5.0,11.0,75,0.00,,,0.03,Wunderground v.1.13,2013-04-16 00:52:00,
2013-04-15 19:54:00,35.9,28.7,29.81,West,265,6.0,11.0,75,0.00,,,0.03,Wunderground v.1.13,2013-04-16 00:54:00,
2013-04-15 19:56:00,35.9,28.7,29.81,WSW,257,7.0,7.0,75,0.00,,,0.03,Wunderground v.1.13,2013-04-16 00:56:00,
2013-04-15 19:58:00,35.9,28.7,29.82,WSW,257,7.0,8.0,75,0.00,,,0.03,Wunderground v.1.13,2013-04-16 00:58:00,
2013-04-15 19:59:00,35.9,28.7,29.82,WSW,252,7.0,8.0,75,0.00,,,0.03,Wunderground v.1.13,2013-04-16 00:59:00,
2013-04-15 20:00:00,35.9,28.7,29.82,WSW,252,7.0,7.0,75,0.00,,,0.03,Wunderground v.1.13,2013-04-16 01:00:00,
2013-04-15 20:04:00,35.8,28.6,29.81,West,259,7.0,8.0,75,0.00,,,0.03,Wunderground v.1.13,2013-04-16 01:04:00,
2013-04-15 20:05:00,35.8,28.6,29.81,West,268,7.0,7.0,75,0.00,,,0.03,Wunderground v.1.13,2013-04-16 01:05:00,
2013-04-15 20:07:00,35.8,28.6,29.81,West,267,7.0,7.0,75,0.00,,,0.03,Wunderground v.1.13,2013-04-16 01:07:00,
2013-04-15 20:09:00,35.7,28.6,29.81,West,269,7.0,13.0,75,0.00,,,0.03,Wunderground v.1.13,2013-04-16 01:09:00,
2013-04-15 20:11:00,35.7,28.9,29.81,West,263,7.0,7.0,76,0.00,,,0.03,Wunderground v.1.13,2013-04-16 01:11:00,
2013-04-15 20:12:00,35.7,28.9,29.81,West,261,6.0,7.0,76,0.00,,,0.03,Wunderground v.1.13,2013-04-16 01:12:00,
2013-04-15 20:13:00,35.7,28.9,29.82,WSW,256,6.0,7.0,76,0.00,,,0.03,Wunderground v.1.13,2013-04-16 01:13:00,
2013-04-15 20:16:00,35.7,28.9,29.82,WSW,252,6.0,6.0,76,0.00,,,0.03,Wunderground v.1.13,2013-04-16 01:16:00,
2013-04-15 20:18:00,35.6,28.8,29.82,WSW,250,7.0,8.0,76,0.00,,,0.03,Wunderground v.1.13,2013-04-16 01:18:00,
2013-04-15 20:19:00,35.6,28.8,29.82,West,264,6.0,8.0,76,0.00,,,0.03,Wunderground v.1.13,2013-04-16 01:19:00,
2013-04-15 20:20:00,35.6,28.8,29.82,West,259,6.0,6.0,76,0.00,,,0.03,Wunderground v.1.13,2013-04-16 01:20:00,
2013-04-15 20:22:00,35.6,28.8,29.82,WSW,257,7.0,7.0,76,0.00,,,0.03,Wunderground v.1.13,2013-04-16 01:22:00,
2013-04-15 20:23:00,35.6,28.8,29.81,West,261,7.0,7.0,76,0.00,,,0.03,Wunderground v.1.13,2013-04-16 01:23:00,
2013-04-15 20:25:00,35.6,28.8,29.82,WSW,242,7.0,9.0,76,0.00,,,0.03,Wunderground v.1.13,2013-04-16 01:25:00,
2013-04-15 20:26:00,35.6,28.8,29.82,West,273,7.0,9.0,76,0.00,,,0.03,Wunderground v.1.13,2013-04-16 01:26:00,
2013-04-15 20:30:00,35.5,28.7,29.82,WSW,246,7.0,8.0,76,0.00,,,0.03,Wunderground v.1.13,2013-04-16 01:30:00,
2013-04-15 20:31:00,35.5,28.7,29.82,West,263,7.0,8.0,76,0.00,,,0.03,Wunderground v.1.13,2013-04-16 01:31:00,
2013-04-15 20:32:00,35.5,28.7,29.82,WSW,257,7.0,8.0,76,0.00,,,0.03,Wunderground v.1.13,2013-04-16 01:32:00,
2013-04-15 20:33:00,35.6,28.8,29.82,WSW,254,7.0,8.0,76,0.00,,,0.03,Wunderground v.1.13,2013-04-16 01:33:00,
2013-04-15 20:37:00,35.6,28.8,29.82,WSW,257,8.0,9.0,76,0.00,,,0.03,Wunderground v.1.13,2013-04-16 01:37:00,
2013-04-15 20:39:00,35.6,28.8,29.82,WNW,284,8.0,12.0,76,0.00,,,0.03,Wunderground v.1.13,2013-04-16 01:39:00,
2013-04-15 20:40:00,35.6,28.8,29.83,WSW,252,8.0,9.0,76,0.00,,,0.03,Wunderground v.1.13,2013-04-16 01:40:00,
2013-04-15 20:43:00,35.6,28.5,29.83,West,262,9.0,15.0,75,0.00,,,0.03,Wunderground v.1.13,2013-04-16 01:43:00,
2013-04-15 20:44:00,35.6,28.5,29.83,WSW,251,10.0,15.0,75,0.00,,,0.03,Wunderground v.1.13,2013-04-16 01:44:00,
2013-04-15 20:49:00,35.7,28.6,29.83,West,259,11.0,12.0,75,0.00,,,0.03,Wunderground v.1.13,2013-04-16 01:49:00,
2013-04-15 20:50:00,35.7,28.6,29.83,WSW,251,10.0,10.0,75,0.00,,,0.03,Wunderground v.1.13,2013-04-16 01:50:00,
2013-04-15 20:52:00,35.6,28.5,29.83,WSW,243,10.0,10.0,75,0.00,,,0.03,Wunderground v.1.13,2013-04-16 01:52:00,
2013-04-15 20:55:00,35.6,28.5,29.83,WSW,257,9.0,9.0,75,0.00,,,0.03,Wunderground v.1.13,2013-04-16 01:55:00,
2013-04-15 20:56:00,35.6,28.5,29.83,WSW,252,8.0,9.0,75,0.00,,,0.03,Wunderground v.1.13,2013-04-16 01:56:00,
2013-04-15 20:57:00,35.6,28.5,29.83,WSW,250,8.0,9.0,75,0.00,,,0.03,Wunderground v.1.13,2013-04-16 01:57:00,
2013-04-15 20:58:00,35.6,28.5,29.83,West,281,7.0,12.0,75,0.00,,,0.03,Wunderground v.1.13,2013-04-16 01:58:00,
2013-04-15 21:01:00,35.5,28.7,29.83,WSW,257,7.0,7.0,76,0.00,,,0.03,Wunderground v.1.13,2013-04-16 02:01:00,
2013-04-15 21:02:00,35.5,28.7,29.83,West,276,7.0,7.0,76,0.00,,,0.03,Wunderground v.1.13,2013-04-16 02:02:00,
2013-04-15 21:04:00,35.4,28.6,29.83,WSW,258,6.0,7.0,76,0.00,,,0.03,Wunderground v.1.13,2013-04-16 02:04:00,
2013-04-15 21:07:00,35.4,28.6,29.83,WSW,247,7.0,14.0,76,0.00,,,0.03,Wunderground v.1.13,2013-04-16 02:07:00,
2013-04-15 21:09:00,35.5,28.4,29.83,WSW,258,7.0,14.0,75,0.00,,,0.03,Wunderground v.1.13,2013-04-16 02:09:00,
2013-04-15 21:13:00,35.5,28.4,29.83,West,279,8.0,11.0,75,0.00,,,0.03,Wunderground v.1.13,2013-04-16 02:13:00,
2013-04-15 21:14:00,35.5,28.4,29.84,WSW,247,8.0,11.0,75,0.00,,,0.03,Wunderground v.1.13,2013-04-16 02:14:00,
2013-04-15 21:15:00,35.6,28.5,29.84,WSW,251,9.0,11.0,75,0.00,,,0.03,Wunderground v.1.13,2013-04-16 02:15:00,
2013-04-15 21:16:00,35.5,28.4,29.84,WSW,254,9.0,11.0,75,0.00,,,0.03,Wunderground v.1.13,2013-04-16 02:16:00,
2013-04-15 21:18:00,35.6,28.5,29.84,WSW,257,9.0,11.0,75,0.00,,,0.03,Wunderground v.1.13,2013-04-16 02:18:00,
2013-04-15 21:19:00,35.5,28.4,29.84,West,259,8.0,11.0,75,0.00,,,0.03,Wunderground v.1.13,2013-04-16 02:19:00,
2013-04-15 21:21:00,35.5,28.4,29.84,WSW,247,8.0,14.0,75,0.00,,,0.03,Wunderground v.1.13,2013-04-16 02:21:00,
2013-04-15 21:23:00,35.5,28.4,29.84,West,281,9.0,14.0,75,0.00,,,0.03,Wunderground v.1.13,2013-04-16 02:23:00,
2013-04-15 21:24:00,35.5,28.4,29.84,WNW,282,9.0,14.0,75,0.00,,,0.03,Wunderground v.1.13,2013-04-16 02:24:00,
2013-04-15 21:25:00,35.5,28.4,29.84,WSW,256,9.0,9.0,75,0.00,,,0.03,Wunderground v.1.13,2013-04-16 02:25:00,
2013-04-15 21:28:00,35.5,28.4,29.85,WSW,244,9.0,13.0,75,0.00,,,0.03,Wunderground v.1.13,2013-04-16 02:28:00,
2013-04-15 21:29:00,35.5,28.4,29.85,WSW,242,9.0,13.0,75,0.00,,,0.03,Wunderground v.1.13,2013-04-16 02:29:00,
2013-04-15 21:30:00,35.5,28.4,29.85,WSW,250,9.0,9.0,75,0.00,,,0.03,Wunderground v.1.13,2013-04-16 02:30:00,
2013-04-15 21:32:00,35.5,28.4,29.85,WSW,252,9.0,9.0,75,0.00,,,0.03,Wunderground v.1.13,2013-04-16 02:32:00,
2013-04-15 21:33:00,35.5,28.7,29.85,WSW,250,9.0,9.0,76,0.00,,,0.03,Wunderground v.1.13,2013-04-16 02:33:00,
2013-04-15 21:34:00,35.5,28.7,29.85,West,265,9.0,9.0,76,0.00,,,0.03,Wunderground v.1.13,2013-04-16 02:34:00,
2013-04-15 21:37:00,35.5,28.7,29.86,WSW,249,9.0,13.0,76,0.00,,,0.03,Wunderground v.1.13,2013-04-16 02:37:00,
2013-04-15 21:38:00,35.5,28.7,29.86,WSW,254,9.0,13.0,76,0.00,,,0.03,Wunderground v.1.13,2013-04-16 02:38:00,
2013-04-15 21:39:00,35.5,28.7,29.86,WSW,248,9.0,13.0,76,0.00,,,0.03,Wunderground v.1.13,2013-04-16 02:39:00,
2013-04-15 21:40:00,35.5,28.7,29.86,WSW,252,9.0,9.0,76,0.00,,,0.03,Wunderground v.1.13,2013-04-16 02:40:00,
2013-04-15 21:43:00,35.4,28.6,29.86,West,259,8.0,9.0,76,0.00,,,0.03,Wunderground v.1.13,2013-04-16 02:43:00,
2013-04-15 21:44:00,35.4,28.6,29.86,WSW,240,8.0,9.0,76,0.00,,,0.03,Wunderground v.1.13,2013-04-16 02:44:00,
2013-04-15 21:46:00,35.4,28.6,29.86,WSW,258,8.0,8.0,76,0.00,,,0.03,Wunderground v.1.13,2013-04-16 02:46:00,
2013-04-15 21:48:00,35.4,28.6,29.86,WSW,256,8.0,9.0,76,0.00,,,0.03,Wunderground v.1.13,2013-04-16 02:48:00,
2013-04-15 21:49:00,35.4,28.6,29.86,West,265,7.0,9.0,76,0.00,,,0.03,Wunderground v.1.13,2013-04-16 02:49:00,
2013-04-15 21:50:00,35.3,28.8,29.86,WSW,257,7.0,7.0,77,0.00,,,0.03,Wunderground v.1.13,2013-04-16 02:50:00,
2013-04-15 21:53:00,35.2,28.7,29.86,WSW,255,7.0,10.0,77,0.00,,,0.03,Wunderground v.1.13,2013-04-16 02:53:00,
2013-04-15 21:56:00,35.2,28.7,29.86,WSW,257,7.0,11.0,77,0.00,,,0.03,Wunderground v.1.13,2013-04-16 02:56:00,
2013-04-15 21:57:00,35.3,28.8,29.86,West,277,8.0,11.0,77,0.00,,,0.03,Wunderground v.1.13,2013-04-16 02:57:00,
2013-04-15 21:58:00,35.3,28.8,29.86,WSW,257,8.0,11.0,77,0.00,,,0.03,Wunderground v.1.13,2013-04-16 02:58:00,
2013-04-15 21:59:00,35.3,28.8,29.86,West,263,8.0,11.0,77,0.00,,,0.03,Wunderground v.1.13,2013-04-16 02:59:00,
2013-04-15 22:01:00,35.3,28.8,29.86,West,277,9.0,9.0,77,0.00,,,0.03,Wunderground v.1.13,2013-04-16 03:01:00,
2013-04-15 22:04:00,35.2,28.7,29.87,WSW,249,9.0,16.0,77,0.00,,,0.03,Wunderground v.1.13,2013-04-16 03:04:00,
2013-04-15 22:05:00,35.2,28.7,29.87,WSW,246,9.0,9.0,77,0.00,,,0.03,Wunderground v.1.13,2013-04-16 03:05:00,
2013-04-15 22:06:00,35.2,28.7,29.86,West,280,9.0,9.0,77,0.00,,,0.03,Wunderground v.1.13,2013-04-16 03:06:00,
2013-04-15 22:09:00,35.2,28.7,29.86,WSW,253,8.0,10.0,77,0.00,,,0.03,Wunderground v.1.13,2013-04-16 03:09:00,
2013-04-15 22:10:00,35.2,28.7,29.86,WSW,257,7.0,7.0,77,0.00,,,0.03,Wunderground v.1.13,2013-04-16 03:10:00,
2013-04-15 22:11:00,35.1,28.6,29.86,WSW,254,7.0,7.0,77,0.00,,,0.03,Wunderground v.1.13,2013-04-16 03:11:00,
2013-04-15 22:13:00,35.1,28.6,29.86,WSW,253,7.0,9.0,77,0.00,,,0.03,Wunderground v.1.13,2013-04-16 03:13:00,
2013-04-15 22:15:00,35.1,28.9,29.87,WNW,295,7.0,10.0,78,0.00,,,0.03,Wunderground v.1.13,2013-04-16 03:15:00,
2013-04-15 22:16:00,35.1,28.9,29.87,SW,232,7.0,10.0,78,0.00,,,0.03,Wunderground v.1.13,2013-04-16 03:16:00,
2013-04-15 22:19:00,35.1,28.9,29.87,WSW,243,7.0,13.0,78,0.00,,,0.03,Wunderground v.1.13,2013-04-16 03:19:00,
2013-04-15 22:20:00,35.1,28.9,29.87,West,272,7.0,7.0,78,0.00,,,0.03,Wunderground v.1.13,2013-04-16 03:20:00,
2013-04-15 22:23:00,35.1,28.9,29.86,WSW,253,7.0,7.0,78,0.00,,,0.03,Wunderground v.1.13,2013-04-16 03:23:00,
2013-04-15 22:24:00,35.1,28.9,29.87,WSW,257,7.0,8.0,78,0.00,,,0.03,Wunderground v.1.13,2013-04-16 03:24:00,
2013-04-15 22:25:00,35.1,28.9,29.87,WSW,252,8.0,8.0,78,0.00,,,0.03,Wunderground v.1.13,2013-04-16 03:25:00,
2013-04-15 22:28:00,35.0,28.8,29.87,SW,225,8.0,10.0,78,0.00,,,0.03,Wunderground v.1.13,2013-04-16 03:28:00,
2013-04-15 22:30:00,34.9,28.7,29.87,WSW,256,7.0,9.0,78,0.00,,,0.03,Wunderground v.1.13,2013-04-16 03:30:00,
2013-04-15 22:31:00,34.9,28.7,29.87,West,261,7.0,9.0,78,0.00,,,0.03,Wunderground v.1.13,2013-04-16 03:31:00,
2013-04-15 22:34:00,34.8,29.0,29.87,WSW,250,7.0,12.0,79,0.00,,,0.03,Wunderground v.1.13,2013-04-16 03:34:00,
2013-04-15 22:35:00,34.9,29.0,29.87,WSW,254,7.0,10.0,79,0.00,,,0.03,Wunderground v.1.13,2013-04-16 03:35:00,
2013-04-15 22:36:00,34.8,29.0,29.87,WSW,254,7.0,10.0,79,0.00,,,0.03,Wunderground v.1.13,2013-04-16 03:36:00,
2013-04-15 22:37:00,34.8,29.0,29.87,WSW,241,8.0,10.0,79,0.00,,,0.03,Wunderground v.1.13,2013-04-16 03:37:00,
2013-04-15 22:40:00,34.8,29.0,29.87,WSW,252,8.0,8.0,79,0.00,,,0.03,Wunderground v.1.13,2013-04-16 03:40:00,
2013-04-15 22:42:00,34.8,29.0,29.87,WSW,242,8.0,8.0,79,0.00,,,0.03,Wunderground v.1.13,2013-04-16 03:42:00,
2013-04-15 22:43:00,34.8,29.0,29.87,WSW,254,8.0,8.0,79,0.00,,,0.03,Wunderground v.1.13,2013-04-16 03:43:00,
2013-04-15 22:44:00,34.8,29.0,29.87,West,261,7.0,10.0,79,0.00,,,0.03,Wunderground v.1.13,2013-04-16 03:44:00,
2013-04-15 22:46:00,34.8,29.0,29.88,West,261,7.0,7.0,79,0.00,,,0.03,Wunderground v.1.13,2013-04-16 03:46:00,
2013-04-15 22:48:00,34.8,29.0,29.88,West,259,6.0,7.0,79,0.00,,,0.03,Wunderground v.1.13,2013-04-16 03:48:00,
2013-04-15 22:50:00,34.8,29.0,29.88,WSW,254,6.0,6.0,79,0.00,,,0.03,Wunderground v.1.13,2013-04-16 03:50:00,
2013-04-15 22:51:00,34.8,29.0,29.88,SW,227,6.0,9.0,79,0.00,,,0.03,Wunderground v.1.13,2013-04-16 03:51:00,
2013-04-15 22:53:00,34.8,29.0,29.88,WSW,252,6.0,10.0,79,0.00,,,0.03,Wunderground v.1.13,2013-04-16 03:53:00,
2013-04-15 22:54:00,34.8,29.0,29.88,WSW,258,6.0,10.0,79,0.00,,,0.03,Wunderground v.1.13,2013-04-16 03:54:00,
2013-04-15 22:59:00,34.8,29.0,29.88,West,261,6.0,8.0,79,0.00,,,0.03,Wunderground v.1.13,2013-04-16 03:59:00,
2013-04-15 23:00:00,34.8,29.0,29.88,WSW,252,6.0,8.0,79,0.00,,,0.03,Wunderground v.1.13,2013-04-16 04:00:00,
2013-04-15 23:01:00,34.8,29.0,29.88,WSW,253,6.0,10.0,79,0.00,,,0.03,Wunderground v.1.13,2013-04-16 04:01:00,
2013-04-15 23:02:00,34.8,29.0,29.89,West,261,6.0,10.0,79,0.00,,,0.03,Wunderground v.1.13,2013-04-16 04:02:00,
2013-04-15 23:05:00,34.8,29.0,29.88,WSW,245,6.0,7.0,79,0.00,,,0.03,Wunderground v.1.13,2013-04-16 04:05:00,
2013-04-15 23:06:00,34.8,29.0,29.88,WSW,257,6.0,7.0,79,0.00,,,0.03,Wunderground v.1.13,2013-04-16 04:06:00,
2013-04-15 23:08:00,34.8,29.0,29.88,WSW,250,6.0,7.0,79,0.00,,,0.03,Wunderground v.1.13,2013-04-16 04:08:00,
2013-04-15 23:09:00,34.8,29.0,29.88,West,263,6.0,9.0,79,0.00,,,0.03,Wunderground v.1.13,2013-04-16 04:09:00,
2013-04-15 23:10:00,34.8,29.0,29.88,WSW,253,7.0,7.0,79,0.00,,,0.03,Wunderground v.1.13,2013-04-16 04:10:00,
2013-04-15 23:12:00,34.8,29.0,29.89,WSW,257,6.0,7.0,79,0.00,,,0.03,Wunderground v.1.13,2013-04-16 04:12:00,
2013-04-15 23:14:00,34.7,28.9,29.89,West,264,6.0,7.0,79,0.00,,,0.03,Wunderground v.1.13,2013-04-16 04:14:00,
2013-04-15 23:15:00,34.7,28.9,29.90,WSW,248,6.0,6.0,79,0.00,,,0.03,Wunderground v.1.13,2013-04-16 04:15:00,
2013-04-15 23:16:00,34.7,28.9,29.90,WSW,256,6.0,7.0,79,0.00,,,0.03,Wunderground v.1.13,2013-04-16 04:16:00,
2013-04-15 23:19:00,34.8,29.0,29.89,WSW,256,7.0,9.0,79,0.00,,,0.03,Wunderground v.1.13,2013-04-16 04:19:00,
2013-04-15 23:20:00,34.8,29.0,29.89,WSW,249,7.0,7.0,79,0.00,,,0.03,Wunderground v.1.13,2013-04-16 04:20:00,
2013-04-15 23:24:00,34.8,29.0,29.90,West,260,7.0,7.0,79,0.00,,,0.03,Wunderground v.1.13,2013-04-16 04:24:00,
2013-04-15 23:25:00,34.8,29.0,29.90,WSW,257,7.0,8.0,79,0.00,,,0.03,Wunderground v.1.13,2013-04-16 04:25:00,
2013-04-15 23:27:00,34.8,29.0,29.89,West,259,7.0,9.0,79,0.00,,,0.03,Wunderground v.1.13,2013-04-16 04:27:00,
2013-04-15 23:30:00,34.8,29.0,29.89,WSW,257,7.0,7.0,79,0.00,,,0.03,Wunderground v.1.13,2013-04-16 04:30:00,
2013-04-15 23:31:00,34.8,29.0,29.89,WSW,258,7.0,8.0,79,0.00,,,0.03,Wunderground v.1.13,2013-04-16 04:31:00,
2013-04-15 23:33:00,34.8,29.0,29.90,West,279,7.0,8.0,79,0.00,,,0.03,Wunderground v.1.13,2013-04-16 04:33:00,
2013-04-15 23:34:00,34.8,29.0,29.90,West,267,7.0,8.0,79,0.00,,,0.03,Wunderground v.1.13,2013-04-16 04:34:00,
2013-04-15 23:36:00,34.8,29.0,29.90,West,263,7.0,9.0,79,0.00,,,0.03,Wunderground v.1.13,2013-04-16 04:36:00,
2013-04-15 23:37:00,34.8,29.0,29.90,West,259,7.0,9.0,79,0.00,,,0.03,Wunderground v.1.13,2013-04-16 04:37:00,
2013-04-15 23:38:00,34.8,29.0,29.90,WSW,258,7.0,9.0,79,0.00,,,0.03,Wunderground v.1.13,2013-04-16 04:38:00,
2013-04-15 23:41:00,34.8,29.0,29.90,WSW,248,7.0,8.0,79,0.00,,,0.03,Wunderground v.1.13,2013-04-16 04:41:00,
2013-04-15 23:42:00,34.8,29.3,29.90,WSW,251,7.0,9.0,80,0.00,,,0.03,Wunderground v.1.13,2013-04-16 04:42:00,
2013-04-15 23:47:00,34.8,29.3,29.90,West,265,8.0,14.0,80,0.00,,,0.03,Wunderground v.1.13,2013-04-16 04:47:00,
2013-04-15 23:48:00,34.8,29.3,29.90,WSW,253,8.0,14.0,80,0.00,,,0.03,Wunderground v.1.13,2013-04-16 04:48:00,
2013-04-15 23:49:00,34.8,29.3,29.90,WSW,251,8.0,14.0,80,0.00,,,0.03,Wunderground v.1.13,2013-04-16 04:49:00,
2013-04-15 23:51:00,34.8,29.3,29.90,WSW,249,8.0,11.0,80,0.00,,,0.03,Wunderground v.1.13,2013-04-16 04:51:00,
2013-04-15 23:55:00,34.8,29.3,29.91,WSW,257,9.0,9.0,80,0.00,,,0.03,Wunderground v.1.13,2013-04-16 04:55:00,
2013-04-15 23:56:00,34.8,29.3,29.91,WSW,244,8.0,9.0,80,0.00,,,0.03,Wunderground v.1.13,2013-04-16 04:56:00,
2013-04-15 23:57:00,34.8,29.3,29.91,West,259,8.0,9.0,80,0.00,,,0.03,Wunderground v.1.13,2013-04-16 04:57:00,
2013-04-15 23:58:00,34.7,29.2,29.91,West,269,8.0,9.0,80,0.00,,,0.03,Wunderground v.1.13,2013-04-16 04:58:00,